KAL9402 YSSY-RKSI
Flight info
| Callsign | KAL9402 |
|---|---|
| Flight time | 10h 44m |
| Altitude | 34000 |
| Route | RIC H530 LASUD Q238 DUPUG/N0490F330 Q141 ESKUT/N0491F340 Q141 OVRON B462 PY B586 NZ/N0488F360 B586 PIKOK DCT 05N144E 10N141E 15N139E 20N137E/N0480F380 DCT SABGU G339 LUKRA Y208 INVOK Z91 PSN Y782 BITUX Z53 BASEM Y685 GUKDO |
| Aircraft | B77W/H-SDE2FGHIJ1J3J5M1P2RWXYZ/LB1D1 |
Departure
| Time | 2026-05-04 15:10 |
|---|---|
| Airport | Sydney Kingsford Smith International Airport (YSSY) |
Arrival
| Time | 2026-05-05 01:54 |
|---|---|
| Airport | Incheon International Airport (RKSI) |
| Time | Latitude | Longitude | Altitude | Speed | Heading |
|---|---|---|---|---|---|
| 2026-05-04 14:51 | -33.93730 | 151.16950 | 33 ft | 0 kts | 254° |
| 2026-05-04 15:00 | -33.93728 | 151.16959 | 32 ft | 2 kts | 254° |
| 2026-05-04 15:00 | -33.93724 | 151.16977 | 32 ft | 2 kts | 254° |
| 2026-05-04 15:01 | -33.93718 | 151.17011 | 31 ft | 2 kts | 282° |
| 2026-05-04 15:01 | -33.93724 | 151.17027 | 30 ft | 2 kts | 308° |
| 2026-05-04 15:01 | -33.93735 | 151.17040 | 30 ft | 2 kts | 333° |
| 2026-05-04 15:01 | -33.93749 | 151.17046 | 29 ft | 2 kts | 351° |
| 2026-05-04 15:02 | -33.93764 | 151.17049 | 29 ft | 1 kts | 349° |
| 2026-05-04 15:02 | -33.93767 | 151.17050 | 29 ft | 0 kts | 348° |
| 2026-05-04 15:04 | -33.93752 | 151.17050 | 29 ft | 4 kts | 13° |
| 2026-05-04 15:04 | -33.93717 | 151.17088 | 28 ft | 9 kts | 60° |
| 2026-05-04 15:04 | -33.93666 | 151.17142 | 26 ft | 10 kts | 6° |
| 2026-05-04 15:05 | -33.93602 | 151.17129 | 27 ft | 8 kts | 347° |
| 2026-05-04 15:05 | -33.93544 | 151.17114 | 28 ft | 8 kts | 348° |
| 2026-05-04 15:05 | -33.93478 | 151.17097 | 29 ft | 10 kts | 348° |
| 2026-05-04 15:05 | -33.93395 | 151.17075 | 30 ft | 12 kts | 347° |
| 2026-05-04 15:06 | -33.93321 | 151.17036 | 30 ft | 10 kts | 324° |
| 2026-05-04 15:06 | -33.93277 | 151.16985 | 31 ft | 8 kts | 316° |
| 2026-05-04 15:06 | -33.93223 | 151.16954 | 31 ft | 9 kts | 345° |
| 2026-05-04 15:07 | -33.93091 | 151.16919 | 31 ft | 9 kts | 348° |
| 2026-05-04 15:07 | -33.93021 | 151.16913 | 31 ft | 10 kts | 22° |
| 2026-05-04 15:07 | -33.92980 | 151.16977 | 31 ft | 9 kts | 72° |
| 2026-05-04 15:07 | -33.92965 | 151.17056 | 30 ft | 9 kts | 77° |
| 2026-05-04 15:08 | -33.92950 | 151.17136 | 29 ft | 9 kts | 78° |
| 2026-05-04 15:08 | -33.92948 | 151.17145 | 29 ft | 0 kts | 82° |
| 2026-05-04 15:08 | -33.92950 | 151.17154 | 29 ft | 1 kts | 122° |
| 2026-05-04 15:08 | -33.92954 | 151.17158 | 29 ft | 1 kts | 139° |
| 2026-05-04 15:09 | -33.92986 | 151.17172 | 30 ft | 11 kts | 166° |
| 2026-05-04 15:09 | -33.93264 | 151.17244 | 28 ft | 74 kts | 168° |
| 2026-05-04 15:09 | -33.93990 | 151.17432 | 20 ft | 136 kts | 168° |
| 2026-05-04 15:10 | -33.96386 | 151.18047 | 500 ft | 196 kts | 171° |
| 2026-05-04 15:10 | -33.97763 | 151.18175 | 1188 ft | 203 kts | 188° |
| 2026-05-04 15:10 | -34.00605 | 151.17787 | 2319 ft | 215 kts | 190° |
| 2026-05-04 15:11 | -34.02106 | 151.17581 | 2875 ft | 217 kts | 185° |
| 2026-05-04 15:11 | -34.03621 | 151.17799 | 3249 ft | 231 kts | 167° |
| 2026-05-04 15:11 | -34.05253 | 151.18339 | 3539 ft | 248 kts | 166° |
| 2026-05-04 15:11 | -34.06969 | 151.18927 | 3856 ft | 265 kts | 166° |
| 2026-05-04 15:12 | -34.08778 | 151.19536 | 4316 ft | 278 kts | 166° |
| 2026-05-04 15:12 | -34.10670 | 151.20167 | 4912 ft | 285 kts | 167° |
| 2026-05-04 15:12 | -34.12585 | 151.20805 | 5554 ft | 290 kts | 167° |
| 2026-05-04 15:12 | -34.14547 | 151.21458 | 6247 ft | 292 kts | 168° |
| 2026-05-04 15:13 | -34.16560 | 151.21654 | 6796 ft | 292 kts | 194° |
| 2026-05-04 15:13 | -34.18407 | 151.20815 | 7297 ft | 288 kts | 221° |
| 2026-05-04 15:13 | -34.19740 | 151.19113 | 7951 ft | 276 kts | 247° |
| 2026-05-04 15:13 | -34.20339 | 151.16988 | 8628 ft | 265 kts | 270° |
| 2026-05-04 15:14 | -34.20196 | 151.14828 | 9229 ft | 258 kts | 292° |
| 2026-05-04 15:14 | -34.19370 | 151.12965 | 9932 ft | 251 kts | 312° |
| 2026-05-04 15:14 | -34.18033 | 151.11600 | 10373 ft | 260 kts | 329° |
| 2026-05-04 15:14 | -34.16373 | 151.10571 | 10616 ft | 277 kts | 332° |
| 2026-05-04 15:15 | -34.14575 | 151.09511 | 10872 ft | 294 kts | 332° |
| 2026-05-04 15:15 | -34.12703 | 151.08415 | 11188 ft | 309 kts | 332° |
| 2026-05-04 15:15 | -34.10729 | 151.07254 | 11577 ft | 322 kts | 332° |
| 2026-05-04 15:16 | -34.06638 | 151.04860 | 12962 ft | 329 kts | 332° |
| 2026-05-04 15:16 | -34.04572 | 151.03656 | 13719 ft | 331 kts | 332° |
| 2026-05-04 15:16 | -34.00399 | 151.01218 | 15178 ft | 338 kts | 332° |
| 2026-05-04 15:17 | -33.98276 | 150.99980 | 15966 ft | 339 kts | 332° |
| 2026-05-04 15:17 | -33.94014 | 150.97501 | 17283 ft | 348 kts | 333° |
| 2026-05-04 15:17 | -33.91802 | 150.96214 | 17917 ft | 352 kts | 333° |
| 2026-05-04 15:18 | -33.89609 | 150.94940 | 18626 ft | 355 kts | 333° |
| 2026-05-04 15:18 | -33.87377 | 150.93645 | 19319 ft | 357 kts | 332° |
| 2026-05-04 15:18 | -33.85130 | 150.92340 | 19902 ft | 363 kts | 332° |
| 2026-05-04 15:19 | -33.80522 | 150.89668 | 21050 ft | 373 kts | 332° |
| 2026-05-04 15:19 | -33.78164 | 150.88303 | 21628 ft | 377 kts | 332° |
| 2026-05-04 15:19 | -33.73407 | 150.85551 | 22752 ft | 384 kts | 332° |
| 2026-05-04 15:20 | -33.70972 | 150.84145 | 23324 ft | 388 kts | 332° |
| 2026-05-04 15:20 | -33.68557 | 150.82750 | 23826 ft | 392 kts | 332° |
| 2026-05-04 15:20 | -33.66082 | 150.81320 | 24370 ft | 394 kts | 332° |
| 2026-05-04 15:20 | -33.63593 | 150.79886 | 24981 ft | 395 kts | 331° |
| 2026-05-04 15:21 | -33.61169 | 150.78377 | 25489 ft | 396 kts | 326° |
| 2026-05-04 15:21 | -33.58915 | 150.76459 | 25920 ft | 398 kts | 318° |
| 2026-05-04 15:21 | -33.54999 | 150.71725 | 26933 ft | 401 kts | 312° |
| 2026-05-04 15:22 | -33.53092 | 150.69289 | 27500 ft | 402 kts | 312° |
| 2026-05-04 15:22 | -33.51186 | 150.66861 | 28002 ft | 403 kts | 312° |
| 2026-05-04 15:22 | -33.47289 | 150.61911 | 28851 ft | 409 kts | 311° |
| 2026-05-04 15:23 | -33.45339 | 150.59439 | 29323 ft | 410 kts | 311° |
| 2026-05-04 15:23 | -33.43385 | 150.56964 | 29778 ft | 411 kts | 311° |
| 2026-05-04 15:23 | -33.41423 | 150.54483 | 30163 ft | 414 kts | 311° |
| 2026-05-04 15:23 | -33.39456 | 150.51997 | 30553 ft | 416 kts | 311° |
| 2026-05-04 15:24 | -33.35474 | 150.46974 | 31562 ft | 414 kts | 311° |
| 2026-05-04 15:24 | -33.31542 | 150.42020 | 32638 ft | 408 kts | 311° |
| 2026-05-04 15:25 | -33.29595 | 150.39569 | 33080 ft | 407 kts | 310° |
| 2026-05-04 15:25 | -33.27654 | 150.37129 | 33502 ft | 405 kts | 310° |
| 2026-05-04 15:25 | -33.25727 | 150.34706 | 33934 ft | 403 kts | 310° |
| 2026-05-04 15:26 | -33.21880 | 150.29875 | 34094 ft | 402 kts | 311° |
| 2026-05-04 15:26 | -33.16134 | 150.22675 | 34095 ft | 400 kts | 310° |
| 2026-05-04 15:27 | -33.10380 | 150.15475 | 34093 ft | 401 kts | 310° |
| 2026-05-04 15:28 | -33.04634 | 150.08302 | 34087 ft | 399 kts | 310° |
| 2026-05-04 15:29 | -32.98860 | 150.01109 | 34080 ft | 399 kts | 310° |
| 2026-05-04 15:30 | -32.85461 | 149.84473 | 34093 ft | 397 kts | 310° |
| 2026-05-04 15:31 | -32.79731 | 149.77382 | 34092 ft | 398 kts | 310° |
| 2026-05-04 15:32 | -32.70178 | 149.65593 | 34091 ft | 395 kts | 310° |
| 2026-05-04 15:34 | -32.60684 | 149.53914 | 34086 ft | 393 kts | 310° |
| 2026-05-04 15:34 | -32.54993 | 149.46930 | 34084 ft | 393 kts | 310° |
| 2026-05-04 15:35 | -32.49279 | 149.39932 | 34085 ft | 392 kts | 310° |
| 2026-05-04 15:36 | -32.43601 | 149.32991 | 34104 ft | 393 kts | 311° |
| 2026-05-04 15:36 | -32.39818 | 149.28377 | 34106 ft | 391 kts | 311° |
| 2026-05-04 15:37 | -32.35996 | 149.23718 | 34101 ft | 393 kts | 310° |
| 2026-05-04 15:37 | -32.32217 | 149.19119 | 34100 ft | 389 kts | 310° |
| 2026-05-04 15:38 | -32.28437 | 149.14523 | 34099 ft | 391 kts | 310° |
| 2026-05-04 15:38 | -32.24676 | 149.09958 | 34101 ft | 389 kts | 311° |
| 2026-05-04 15:39 | -32.20865 | 149.05336 | 34099 ft | 391 kts | 311° |
| 2026-05-04 15:40 | -32.15181 | 148.98456 | 34095 ft | 390 kts | 311° |
| 2026-05-04 15:40 | -32.11382 | 148.93864 | 34094 ft | 390 kts | 310° |
| 2026-05-04 15:41 | -32.07303 | 148.89703 | 34090 ft | 395 kts | 323° |
| 2026-05-04 15:41 | -32.04773 | 148.88278 | 34090 ft | 406 kts | 333° |
| 2026-05-04 15:41 | -32.01999 | 148.87424 | 34088 ft | 419 kts | 342° |
| 2026-05-04 15:42 | -31.96163 | 148.86876 | 34088 ft | 424 kts | 346° |
| 2026-05-04 15:42 | -31.90239 | 148.86453 | 34086 ft | 425 kts | 346° |
| 2026-05-04 15:43 | -31.84336 | 148.86031 | 34103 ft | 425 kts | 346° |
| 2026-05-04 15:43 | -31.78479 | 148.85611 | 34094 ft | 423 kts | 346° |
| 2026-05-04 15:44 | -31.72594 | 148.85190 | 34098 ft | 423 kts | 346° |
| 2026-05-04 15:44 | -31.66703 | 148.84766 | 34097 ft | 423 kts | 346° |
| 2026-05-04 15:45 | -31.60821 | 148.84345 | 34097 ft | 422 kts | 346° |
| 2026-05-04 15:45 | -31.54994 | 148.83926 | 34090 ft | 420 kts | 346° |
| 2026-05-04 15:46 | -31.49152 | 148.83508 | 34094 ft | 420 kts | 345° |
| 2026-05-04 15:46 | -31.43317 | 148.83090 | 34087 ft | 421 kts | 345° |
| 2026-05-04 15:47 | -31.37486 | 148.82675 | 34084 ft | 418 kts | 345° |
| 2026-05-04 15:47 | -31.31670 | 148.82263 | 34093 ft | 417 kts | 345° |
| 2026-05-04 15:48 | -31.25858 | 148.81842 | 34086 ft | 419 kts | 345° |
| 2026-05-04 15:48 | -31.17142 | 148.81216 | 34082 ft | 414 kts | 345° |
| 2026-05-04 15:49 | -31.11354 | 148.80803 | 34070 ft | 414 kts | 344° |
| 2026-05-04 15:49 | -31.05602 | 148.80396 | 34070 ft | 416 kts | 345° |
| 2026-05-04 15:50 | -30.99842 | 148.79997 | 34069 ft | 415 kts | 344° |
| 2026-05-04 15:50 | -30.94067 | 148.79581 | 34073 ft | 415 kts | 344° |
| 2026-05-04 15:51 | -30.88311 | 148.79181 | 34075 ft | 414 kts | 344° |
| 2026-05-04 15:51 | -30.82575 | 148.78770 | 34087 ft | 411 kts | 344° |
| 2026-05-04 15:52 | -30.76829 | 148.78372 | 34086 ft | 413 kts | 344° |
| 2026-05-04 15:52 | -30.71059 | 148.77966 | 34088 ft | 415 kts | 343° |
| 2026-05-04 15:53 | -30.65298 | 148.77560 | 34084 ft | 414 kts | 344° |
| 2026-05-04 15:53 | -30.59564 | 148.77151 | 34070 ft | 412 kts | 344° |
| 2026-05-04 15:54 | -30.53846 | 148.76738 | 34077 ft | 414 kts | 344° |
| 2026-05-04 15:54 | -30.48089 | 148.76350 | 34078 ft | 414 kts | 344° |
| 2026-05-04 15:55 | -30.42345 | 148.75952 | 34073 ft | 413 kts | 344° |
| 2026-05-04 15:55 | -30.36572 | 148.75545 | 34072 ft | 413 kts | 343° |
| 2026-05-04 15:56 | -30.30845 | 148.75137 | 34078 ft | 415 kts | 344° |
| 2026-05-04 15:56 | -30.25100 | 148.74744 | 34069 ft | 411 kts | 344° |
| 2026-05-04 15:57 | -30.19372 | 148.74345 | 34068 ft | 415 kts | 344° |
| 2026-05-04 15:57 | -30.13612 | 148.73940 | 34068 ft | 412 kts | 344° |
| 2026-05-04 15:58 | -30.07891 | 148.73546 | 34067 ft | 412 kts | 344° |
| 2026-05-04 15:58 | -30.02152 | 148.73151 | 34066 ft | 413 kts | 343° |
| 2026-05-04 15:59 | -29.96427 | 148.72754 | 34072 ft | 413 kts | 343° |
| 2026-05-04 15:59 | -29.90681 | 148.72354 | 34072 ft | 412 kts | 344° |
| 2026-05-04 16:00 | -29.84939 | 148.71968 | 34080 ft | 413 kts | 344° |
| 2026-05-04 16:00 | -29.79211 | 148.71564 | 34075 ft | 413 kts | 344° |
| 2026-05-04 16:01 | -29.73453 | 148.71170 | 34079 ft | 413 kts | 345° |
| 2026-05-04 16:01 | -29.67722 | 148.70773 | 34081 ft | 415 kts | 344° |
| 2026-05-04 16:02 | -29.61978 | 148.70380 | 34078 ft | 415 kts | 344° |
| 2026-05-04 16:03 | -29.53343 | 148.69798 | 34082 ft | 412 kts | 344° |
| 2026-05-04 16:03 | -29.47577 | 148.69388 | 34075 ft | 415 kts | 345° |
| 2026-05-04 16:04 | -29.41833 | 148.68993 | 34076 ft | 415 kts | 345° |
| 2026-05-04 16:04 | -29.33166 | 148.68398 | 34075 ft | 417 kts | 345° |
| 2026-05-04 16:05 | -29.27422 | 148.68008 | 34075 ft | 411 kts | 345° |
| 2026-05-04 16:06 | -29.18741 | 148.67413 | 34073 ft | 417 kts | 344° |
| 2026-05-04 16:07 | -29.07206 | 148.66628 | 34074 ft | 416 kts | 344° |
| 2026-05-04 16:08 | -28.95622 | 148.65839 | 34073 ft | 416 kts | 345° |
| 2026-05-04 16:09 | -28.81220 | 148.64864 | 34086 ft | 415 kts | 345° |
| 2026-05-04 16:10 | -28.69626 | 148.64075 | 34081 ft | 421 kts | 345° |
| 2026-05-04 16:11 | -28.58026 | 148.63295 | 34081 ft | 417 kts | 345° |
| 2026-05-04 16:12 | -28.40564 | 148.62120 | 34077 ft | 418 kts | 345° |
| 2026-05-04 16:13 | -28.28927 | 148.61339 | 34070 ft | 416 kts | 345° |
| 2026-05-04 16:14 | -28.17241 | 148.60555 | 34072 ft | 419 kts | 345° |
| 2026-05-04 16:16 | -28.02644 | 148.59578 | 34069 ft | 420 kts | 345° |
| 2026-05-04 16:17 | -27.88052 | 148.58606 | 34080 ft | 421 kts | 345° |
| 2026-05-04 16:18 | -27.76396 | 148.57831 | 34079 ft | 421 kts | 345° |
| 2026-05-04 16:19 | -27.61742 | 148.56859 | 34077 ft | 421 kts | 346° |
| 2026-05-04 16:20 | -27.47100 | 148.55891 | 34073 ft | 420 kts | 345° |
| 2026-05-04 16:22 | -27.32428 | 148.54924 | 34065 ft | 421 kts | 345° |
| 2026-05-04 16:23 | -27.14808 | 148.53766 | 34056 ft | 421 kts | 345° |
| 2026-05-04 16:25 | -26.97153 | 148.52608 | 34053 ft | 422 kts | 346° |
| 2026-05-04 16:26 | -26.76596 | 148.51266 | 34067 ft | 420 kts | 346° |
| 2026-05-04 16:28 | -26.61914 | 148.50308 | 34071 ft | 421 kts | 346° |
| 2026-05-04 16:29 | -26.41316 | 148.48970 | 34068 ft | 423 kts | 346° |
| 2026-05-04 16:31 | -26.26612 | 148.48018 | 34070 ft | 422 kts | 346° |
| 2026-05-04 16:32 | -26.09003 | 148.46883 | 34075 ft | 421 kts | 346° |
| 2026-05-04 16:33 | -26.03094 | 148.46622 | 34069 ft | 433 kts | 353° |
| 2026-05-04 16:33 | -25.97158 | 148.47655 | 33364 ft | 431 kts | 359° |
| 2026-05-04 16:34 | -25.91257 | 148.48894 | 33078 ft | 436 kts | 359° |
| 2026-05-04 16:34 | -25.88274 | 148.49516 | 33094 ft | 443 kts | 359° |
| 2026-05-04 16:35 | -25.69958 | 148.53340 | 33091 ft | 445 kts | 360° |
| 2026-05-04 16:36 | -25.60824 | 148.55238 | 33088 ft | 444 kts | 360° |
| 2026-05-04 16:37 | -25.51675 | 148.57134 | 33088 ft | 448 kts | 360° |
| 2026-05-04 16:38 | -25.39446 | 148.59665 | 33089 ft | 448 kts | 0° |
| 2026-05-04 16:39 | -25.24173 | 148.62820 | 33089 ft | 445 kts | 0° |
| 2026-05-04 16:40 | -25.11936 | 148.65341 | 33081 ft | 446 kts | 360° |
| 2026-05-04 16:41 | -24.96653 | 148.68481 | 33072 ft | 446 kts | 0° |
| 2026-05-04 16:43 | -24.81313 | 148.71628 | 33078 ft | 445 kts | 0° |
| 2026-05-04 16:43 | -24.72124 | 148.73506 | 33076 ft | 447 kts | 0° |
| 2026-05-04 16:45 | -24.53724 | 148.77261 | 33074 ft | 448 kts | 1° |
| 2026-05-04 16:46 | -24.38329 | 148.80394 | 33073 ft | 452 kts | 1° |
| 2026-05-04 16:47 | -24.25986 | 148.82903 | 33074 ft | 452 kts | 1° |
| 2026-05-04 16:48 | -24.13612 | 148.85410 | 33078 ft | 452 kts | 1° |
| 2026-05-04 16:49 | -24.01191 | 148.87924 | 33083 ft | 453 kts | 1° |
| 2026-05-04 16:50 | -23.88772 | 148.90430 | 33088 ft | 455 kts | 1° |
| 2026-05-04 16:51 | -23.79435 | 148.92313 | 33088 ft | 455 kts | 1° |
| 2026-05-04 16:52 | -23.66917 | 148.94833 | 33079 ft | 453 kts | 1° |
| 2026-05-04 16:53 | -23.57605 | 148.96703 | 33067 ft | 454 kts | 1° |
| 2026-05-04 16:54 | -23.45127 | 148.99203 | 33051 ft | 456 kts | 1° |
| 2026-05-04 16:55 | -23.26380 | 149.02956 | 33041 ft | 455 kts | 2° |
| 2026-05-04 16:56 | -23.10766 | 149.06070 | 33036 ft | 458 kts | 2° |
| 2026-05-04 16:57 | -23.01315 | 149.07951 | 33034 ft | 460 kts | 2° |
| 2026-05-04 16:58 | -22.88767 | 149.10448 | 33038 ft | 459 kts | 2° |
| 2026-05-04 17:00 | -22.69960 | 149.11348 | 34036 ft | 449 kts | 350° |
| 2026-05-04 17:01 | -22.54513 | 149.10616 | 34045 ft | 443 kts | 349° |
| 2026-05-04 17:02 | -22.42173 | 149.10031 | 34041 ft | 445 kts | 350° |
| 2026-05-04 17:03 | -22.32867 | 149.09593 | 34042 ft | 443 kts | 349° |
| 2026-05-04 17:03 | -22.23565 | 149.09152 | 34041 ft | 446 kts | 350° |
| 2026-05-04 17:04 | -22.11182 | 149.08569 | 34043 ft | 448 kts | 350° |
| 2026-05-04 17:05 | -21.98716 | 149.07983 | 34045 ft | 447 kts | 350° |
| 2026-05-04 17:06 | -21.89399 | 149.07547 | 34045 ft | 447 kts | 350° |
| 2026-05-04 17:07 | -21.81124 | 149.07158 | 34048 ft | 446 kts | 350° |
| 2026-05-04 17:07 | -21.73846 | 149.06818 | 34045 ft | 446 kts | 350° |
| 2026-05-04 17:08 | -21.64531 | 149.06184 | 34043 ft | 445 kts | 348° |
| 2026-05-04 17:09 | -21.58350 | 149.05659 | 34040 ft | 447 kts | 348° |
| 2026-05-04 17:09 | -21.52144 | 149.05141 | 34035 ft | 444 kts | 348° |
| 2026-05-04 17:10 | -21.36645 | 149.03859 | 34027 ft | 447 kts | 349° |
| 2026-05-04 17:11 | -21.30464 | 149.03352 | 34022 ft | 445 kts | 348° |
| 2026-05-04 17:12 | -21.21163 | 149.02589 | 34016 ft | 446 kts | 349° |
| 2026-05-04 17:13 | -21.05632 | 149.01320 | 34012 ft | 446 kts | 349° |
| 2026-05-04 17:14 | -20.93252 | 149.00310 | 34006 ft | 448 kts | 349° |
| 2026-05-04 17:15 | -20.83946 | 148.99551 | 34012 ft | 447 kts | 349° |
| 2026-05-04 17:16 | -20.71506 | 148.98540 | 34007 ft | 447 kts | 349° |
| 2026-05-04 17:17 | -20.59024 | 148.97525 | 34005 ft | 448 kts | 349° |
| 2026-05-04 17:18 | -20.46525 | 148.96512 | 34004 ft | 449 kts | 349° |
| 2026-05-04 17:19 | -20.34028 | 148.95494 | 33998 ft | 448 kts | 347° |
| 2026-05-04 17:20 | -20.21784 | 148.93384 | 34001 ft | 445 kts | 344° |
| 2026-05-04 17:20 | -20.12547 | 148.91791 | 33990 ft | 446 kts | 345° |
| 2026-05-04 17:21 | -20.00299 | 148.89711 | 33988 ft | 443 kts | 345° |
| 2026-05-04 17:22 | -19.94185 | 148.88680 | 33991 ft | 447 kts | 345° |
| 2026-05-04 17:23 | -19.81866 | 148.86603 | 33992 ft | 448 kts | 345° |
| 2026-05-04 17:24 | -19.72620 | 148.85049 | 33988 ft | 447 kts | 345° |
| 2026-05-04 17:25 | -19.60288 | 148.82979 | 33982 ft | 447 kts | 345° |
| 2026-05-04 17:26 | -19.47917 | 148.80907 | 33982 ft | 449 kts | 345° |
| 2026-05-04 17:27 | -19.32396 | 148.78310 | 33975 ft | 450 kts | 345° |
| 2026-05-04 17:28 | -19.20029 | 148.76245 | 33972 ft | 451 kts | 345° |
| 2026-05-04 17:29 | -19.01341 | 148.73129 | 33964 ft | 453 kts | 345° |
| 2026-05-04 17:31 | -18.85780 | 148.70543 | 33963 ft | 452 kts | 345° |
| 2026-05-04 17:32 | -18.70188 | 148.67953 | 33966 ft | 453 kts | 346° |
| 2026-05-04 17:33 | -18.57677 | 148.65880 | 33961 ft | 454 kts | 345° |
| 2026-05-04 17:34 | -18.45170 | 148.63811 | 33960 ft | 455 kts | 346° |
| 2026-05-04 17:35 | -18.29530 | 148.61226 | 33957 ft | 453 kts | 346° |
| 2026-05-04 17:36 | -18.23275 | 148.60194 | 33955 ft | 455 kts | 346° |
| 2026-05-04 17:36 | -18.17023 | 148.59163 | 33955 ft | 453 kts | 346° |
| 2026-05-04 17:37 | -18.10757 | 148.58130 | 33951 ft | 457 kts | 346° |
| 2026-05-04 17:37 | -18.04493 | 148.57100 | 33953 ft | 455 kts | 346° |
| 2026-05-04 17:38 | -17.98199 | 148.56064 | 33948 ft | 456 kts | 346° |
| 2026-05-04 17:38 | -17.91946 | 148.55035 | 33943 ft | 455 kts | 346° |
| 2026-05-04 17:39 | -17.82529 | 148.53490 | 33946 ft | 456 kts | 346° |
| 2026-05-04 17:39 | -17.76236 | 148.52457 | 33946 ft | 456 kts | 346° |
| 2026-05-04 17:40 | -17.69930 | 148.51422 | 33945 ft | 457 kts | 346° |
| 2026-05-04 17:40 | -17.63635 | 148.50392 | 33945 ft | 457 kts | 346° |
| 2026-05-04 17:41 | -17.57305 | 148.49355 | 33945 ft | 457 kts | 346° |
| 2026-05-04 17:41 | -17.51018 | 148.48326 | 33943 ft | 457 kts | 346° |
| 2026-05-04 17:42 | -17.44722 | 148.47296 | 33946 ft | 458 kts | 347° |
| 2026-05-04 17:42 | -17.38396 | 148.46262 | 33946 ft | 459 kts | 346° |
| 2026-05-04 17:43 | -17.32057 | 148.45227 | 33943 ft | 458 kts | 347° |
| 2026-05-04 17:43 | -17.25732 | 148.44196 | 33943 ft | 459 kts | 347° |
| 2026-05-04 17:44 | -17.19432 | 148.43167 | 33945 ft | 460 kts | 347° |
| 2026-05-04 17:44 | -17.13091 | 148.42134 | 33942 ft | 459 kts | 347° |
| 2026-05-04 17:45 | -17.06750 | 148.41101 | 33937 ft | 460 kts | 347° |
| 2026-05-04 17:45 | -17.00408 | 148.40070 | 33934 ft | 461 kts | 347° |
| 2026-05-04 17:46 | -16.94048 | 148.39035 | 33930 ft | 461 kts | 347° |
| 2026-05-04 17:46 | -16.87682 | 148.38001 | 33938 ft | 460 kts | 347° |
| 2026-05-04 17:47 | -16.81366 | 148.36974 | 33936 ft | 462 kts | 347° |
| 2026-05-04 17:47 | -16.74965 | 148.35936 | 33934 ft | 463 kts | 347° |
| 2026-05-04 17:48 | -16.68647 | 148.34912 | 33939 ft | 461 kts | 347° |
| 2026-05-04 17:48 | -16.62273 | 148.33878 | 33941 ft | 462 kts | 347° |
| 2026-05-04 17:49 | -16.55880 | 148.32843 | 33938 ft | 461 kts | 347° |
| 2026-05-04 17:49 | -16.49541 | 148.31816 | 33937 ft | 462 kts | 347° |
| 2026-05-04 17:50 | -16.43180 | 148.30788 | 33945 ft | 462 kts | 347° |
| 2026-05-04 17:50 | -16.36805 | 148.29756 | 33945 ft | 462 kts | 347° |
| 2026-05-04 17:51 | -16.30416 | 148.28725 | 33950 ft | 461 kts | 347° |
| 2026-05-04 17:51 | -16.24093 | 148.27705 | 33951 ft | 460 kts | 347° |
| 2026-05-04 17:52 | -16.17703 | 148.26674 | 33953 ft | 462 kts | 347° |
| 2026-05-04 17:52 | -16.11330 | 148.25645 | 33949 ft | 462 kts | 347° |
| 2026-05-04 17:53 | -16.04976 | 148.24622 | 33951 ft | 463 kts | 347° |
| 2026-05-04 17:53 | -15.98575 | 148.23592 | 33951 ft | 462 kts | 347° |
| 2026-05-04 17:54 | -15.92210 | 148.22568 | 33949 ft | 461 kts | 347° |
| 2026-05-04 17:54 | -15.85880 | 148.21550 | 33952 ft | 462 kts | 347° |
| 2026-05-04 17:55 | -15.79486 | 148.20522 | 33949 ft | 462 kts | 347° |
| 2026-05-04 17:55 | -15.73119 | 148.19499 | 33951 ft | 464 kts | 347° |
| 2026-05-04 17:56 | -15.66739 | 148.18475 | 33949 ft | 463 kts | 347° |
| 2026-05-04 17:56 | -15.60365 | 148.17454 | 33946 ft | 462 kts | 347° |
| 2026-05-04 17:57 | -15.54017 | 148.16437 | 33940 ft | 464 kts | 347° |
| 2026-05-04 17:57 | -15.47621 | 148.15414 | 33938 ft | 463 kts | 348° |
| 2026-05-04 17:58 | -15.41252 | 148.14395 | 33942 ft | 462 kts | 348° |
| 2026-05-04 17:58 | -15.34880 | 148.13377 | 33936 ft | 463 kts | 348° |
| 2026-05-04 17:59 | -15.28492 | 148.12357 | 33938 ft | 463 kts | 348° |
| 2026-05-04 18:00 | -15.18903 | 148.10826 | 33931 ft | 462 kts | 348° |
| 2026-05-04 18:00 | -15.12558 | 148.09814 | 33931 ft | 464 kts | 348° |
| 2026-05-04 18:01 | -15.06187 | 148.08798 | 33928 ft | 462 kts | 348° |
| 2026-05-04 18:01 | -14.99804 | 148.07782 | 33925 ft | 464 kts | 348° |
| 2026-05-04 18:02 | -14.90236 | 148.06259 | 33924 ft | 462 kts | 348° |
| 2026-05-04 18:02 | -14.83865 | 148.05246 | 33932 ft | 462 kts | 348° |
| 2026-05-04 18:03 | -14.77481 | 148.04230 | 33927 ft | 464 kts | 348° |
| 2026-05-04 18:03 | -14.71086 | 148.03215 | 33926 ft | 463 kts | 348° |
| 2026-05-04 18:04 | -14.64690 | 148.02199 | 33924 ft | 465 kts | 348° |
| 2026-05-04 18:05 | -14.55119 | 148.00681 | 33920 ft | 464 kts | 348° |
| 2026-05-04 18:05 | -14.48713 | 147.99664 | 33922 ft | 464 kts | 348° |
| 2026-05-04 18:06 | -14.39168 | 147.98152 | 33918 ft | 463 kts | 348° |
| 2026-05-04 18:06 | -14.32772 | 147.97139 | 33917 ft | 463 kts | 349° |
| 2026-05-04 18:07 | -14.26394 | 147.96130 | 33912 ft | 462 kts | 349° |
| 2026-05-04 18:07 | -14.20028 | 147.95123 | 33913 ft | 462 kts | 348° |
| 2026-05-04 18:08 | -14.13679 | 147.94121 | 33908 ft | 461 kts | 349° |
| 2026-05-04 18:08 | -14.07324 | 147.93117 | 33910 ft | 460 kts | 349° |
| 2026-05-04 18:09 | -13.94671 | 147.91119 | 33906 ft | 458 kts | 349° |
| 2026-05-04 18:10 | -13.88320 | 147.90117 | 33910 ft | 462 kts | 349° |
| 2026-05-04 18:10 | -13.81946 | 147.89113 | 33910 ft | 460 kts | 349° |
| 2026-05-04 18:11 | -13.75605 | 147.88115 | 33911 ft | 461 kts | 349° |
| 2026-05-04 18:11 | -13.69256 | 147.87115 | 33909 ft | 460 kts | 349° |
| 2026-05-04 18:12 | -13.62889 | 147.86113 | 33910 ft | 461 kts | 349° |
| 2026-05-04 18:12 | -13.56540 | 147.85115 | 33910 ft | 462 kts | 349° |
| 2026-05-04 18:13 | -13.50160 | 147.84113 | 33911 ft | 462 kts | 349° |
| 2026-05-04 18:14 | -13.40613 | 147.82613 | 33909 ft | 462 kts | 349° |
| 2026-05-04 18:14 | -13.34281 | 147.81619 | 33909 ft | 461 kts | 349° |
| 2026-05-04 18:15 | -13.21545 | 147.79620 | 33910 ft | 462 kts | 349° |
| 2026-05-04 18:16 | -13.15183 | 147.78624 | 33910 ft | 462 kts | 349° |
| 2026-05-04 18:16 | -13.08783 | 147.77622 | 33908 ft | 462 kts | 349° |
| 2026-05-04 18:17 | -12.99220 | 147.76125 | 33893 ft | 462 kts | 349° |
| 2026-05-04 18:18 | -12.89712 | 147.74638 | 33884 ft | 461 kts | 349° |
| 2026-05-04 18:18 | -12.83304 | 147.73636 | 33889 ft | 462 kts | 349° |
| 2026-05-04 18:19 | -12.73753 | 147.72144 | 33889 ft | 462 kts | 349° |
| 2026-05-04 18:19 | -12.67384 | 147.71150 | 33888 ft | 463 kts | 350° |
| 2026-05-04 18:20 | -12.61017 | 147.70157 | 33888 ft | 463 kts | 350° |
| 2026-05-04 18:20 | -12.54648 | 147.69163 | 33889 ft | 462 kts | 349° |
| 2026-05-04 18:21 | -12.48246 | 147.68166 | 33894 ft | 464 kts | 350° |
| 2026-05-04 18:21 | -12.41838 | 147.67168 | 33896 ft | 463 kts | 350° |
| 2026-05-04 18:22 | -12.35484 | 147.66177 | 33894 ft | 463 kts | 350° |
| 2026-05-04 18:22 | -12.29069 | 147.65179 | 33893 ft | 463 kts | 350° |
| 2026-05-04 18:23 | -12.22680 | 147.64185 | 33891 ft | 463 kts | 350° |
| 2026-05-04 18:23 | -12.16334 | 147.63199 | 33888 ft | 463 kts | 350° |
| 2026-05-04 18:24 | -12.09932 | 147.62204 | 33889 ft | 463 kts | 350° |
| 2026-05-04 18:24 | -12.03516 | 147.61206 | 33885 ft | 464 kts | 350° |
| 2026-05-04 18:25 | -11.97136 | 147.60216 | 33887 ft | 464 kts | 350° |
| 2026-05-04 18:25 | -11.90717 | 147.59221 | 33884 ft | 463 kts | 350° |
| 2026-05-04 18:26 | -11.84352 | 147.58235 | 33889 ft | 463 kts | 350° |
| 2026-05-04 18:26 | -11.77984 | 147.57248 | 33889 ft | 462 kts | 350° |
| 2026-05-04 18:27 | -11.71568 | 147.56255 | 33889 ft | 464 kts | 350° |
| 2026-05-04 18:27 | -11.65177 | 147.55266 | 33888 ft | 463 kts | 350° |
| 2026-05-04 18:28 | -11.58806 | 147.54280 | 33892 ft | 463 kts | 350° |
| 2026-05-04 18:28 | -11.52394 | 147.53288 | 33893 ft | 463 kts | 350° |
| 2026-05-04 18:29 | -11.46017 | 147.52303 | 33892 ft | 463 kts | 350° |
| 2026-05-04 18:29 | -11.39627 | 147.51315 | 33890 ft | 462 kts | 350° |
| 2026-05-04 18:30 | -11.30063 | 147.49838 | 33892 ft | 463 kts | 350° |
| 2026-05-04 18:31 | -11.23693 | 147.48856 | 33891 ft | 462 kts | 350° |
| 2026-05-04 18:31 | -11.17292 | 147.47868 | 33892 ft | 464 kts | 350° |
| 2026-05-04 18:32 | -11.10894 | 147.46881 | 33888 ft | 462 kts | 350° |
| 2026-05-04 18:32 | -11.04520 | 147.45900 | 33886 ft | 463 kts | 350° |
| 2026-05-04 18:33 | -10.98171 | 147.44922 | 33887 ft | 461 kts | 350° |
| 2026-05-04 18:33 | -10.91764 | 147.43935 | 33883 ft | 463 kts | 350° |
| 2026-05-04 18:34 | -10.85420 | 147.42960 | 33886 ft | 462 kts | 350° |
| 2026-05-04 18:34 | -10.78992 | 147.41969 | 33883 ft | 465 kts | 350° |
| 2026-05-04 18:35 | -10.72630 | 147.40991 | 33881 ft | 462 kts | 350° |
| 2026-05-04 18:35 | -10.66221 | 147.40008 | 33878 ft | 464 kts | 350° |
| 2026-05-04 18:36 | -10.59812 | 147.39021 | 33870 ft | 465 kts | 350° |
| 2026-05-04 18:36 | -10.53404 | 147.38037 | 33862 ft | 465 kts | 350° |
| 2026-05-04 18:37 | -10.46999 | 147.37054 | 33860 ft | 466 kts | 350° |
| 2026-05-04 18:37 | -10.40546 | 147.36064 | 33864 ft | 465 kts | 350° |
| 2026-05-04 18:38 | -10.34127 | 147.35080 | 33866 ft | 465 kts | 350° |
| 2026-05-04 18:38 | -10.27720 | 147.34097 | 33869 ft | 465 kts | 350° |
| 2026-05-04 18:39 | -10.21281 | 147.33110 | 33868 ft | 466 kts | 350° |
| 2026-05-04 18:39 | -10.14865 | 147.32127 | 33870 ft | 467 kts | 350° |
| 2026-05-04 18:40 | -10.08368 | 147.31133 | 33869 ft | 469 kts | 350° |
| 2026-05-04 18:40 | -10.01917 | 147.30145 | 33868 ft | 467 kts | 350° |
| 2026-05-04 18:41 | -9.95476 | 147.29160 | 33869 ft | 468 kts | 350° |
| 2026-05-04 18:41 | -9.89041 | 147.28175 | 33871 ft | 470 kts | 350° |
| 2026-05-04 18:42 | -9.82535 | 147.27181 | 33874 ft | 468 kts | 350° |
| 2026-05-04 18:42 | -9.76105 | 147.26198 | 33873 ft | 469 kts | 351° |
| 2026-05-04 18:43 | -9.69623 | 147.25207 | 33875 ft | 469 kts | 350° |
| 2026-05-04 18:43 | -9.63170 | 147.24222 | 33875 ft | 467 kts | 350° |
| 2026-05-04 18:44 | -9.56680 | 147.23231 | 33875 ft | 468 kts | 351° |
| 2026-05-04 18:44 | -9.50267 | 147.22252 | 33880 ft | 468 kts | 351° |
| 2026-05-04 18:45 | -9.43790 | 147.21254 | 33890 ft | 467 kts | 349° |
| 2026-05-04 18:45 | -9.37392 | 147.20119 | 33906 ft | 468 kts | 349° |
| 2026-05-04 18:46 | -9.30969 | 147.18973 | 33918 ft | 466 kts | 349° |
| 2026-05-04 18:46 | -9.24555 | 147.17836 | 33926 ft | 467 kts | 349° |
| 2026-05-04 18:47 | -9.18141 | 147.16701 | 33918 ft | 469 kts | 349° |
| 2026-05-04 18:47 | -9.11685 | 147.15559 | 33940 ft | 468 kts | 349° |
| 2026-05-04 18:48 | -9.05233 | 147.14421 | 33937 ft | 467 kts | 349° |
| 2026-05-04 18:48 | -8.98808 | 147.13289 | 33926 ft | 467 kts | 349° |
| 2026-05-04 18:49 | -8.92436 | 147.12164 | 33959 ft | 466 kts | 349° |
| 2026-05-04 18:49 | -8.86001 | 147.11031 | 34029 ft | 466 kts | 349° |
| 2026-05-04 18:50 | -8.79593 | 147.09903 | 34054 ft | 468 kts | 349° |
| 2026-05-04 18:50 | -8.73127 | 147.08765 | 34090 ft | 468 kts | 349° |
| 2026-05-04 18:51 | -8.66733 | 147.07638 | 34110 ft | 467 kts | 349° |
| 2026-05-04 18:51 | -8.60272 | 147.06502 | 34123 ft | 468 kts | 349° |
| 2026-05-04 18:52 | -8.53853 | 147.05373 | 34144 ft | 467 kts | 349° |
| 2026-05-04 18:52 | -8.47431 | 147.04244 | 34158 ft | 467 kts | 349° |
| 2026-05-04 18:53 | -8.41028 | 147.03119 | 34218 ft | 468 kts | 349° |
| 2026-05-04 18:53 | -8.34596 | 147.01990 | 34255 ft | 468 kts | 349° |
| 2026-05-04 18:54 | -8.28126 | 147.00853 | 34311 ft | 468 kts | 349° |
| 2026-05-04 18:54 | -8.21724 | 146.99728 | 34319 ft | 469 kts | 349° |
| 2026-05-04 18:55 | -8.15262 | 146.98595 | 34353 ft | 468 kts | 349° |
| 2026-05-04 18:55 | -8.05613 | 146.96901 | 34367 ft | 467 kts | 349° |
| 2026-05-04 18:56 | -7.99162 | 146.95770 | 34362 ft | 469 kts | 349° |
| 2026-05-04 18:56 | -7.92720 | 146.94641 | 34356 ft | 468 kts | 349° |
| 2026-05-04 18:57 | -7.86276 | 146.93512 | 34297 ft | 471 kts | 349° |
| 2026-05-04 18:57 | -7.79802 | 146.92377 | 34283 ft | 469 kts | 349° |
| 2026-05-04 18:58 | -7.73353 | 146.91248 | 34239 ft | 469 kts | 349° |
| 2026-05-04 18:58 | -7.66914 | 146.90120 | 34259 ft | 471 kts | 349° |
| 2026-05-04 18:59 | -7.60444 | 146.88986 | 34268 ft | 470 kts | 349° |
| 2026-05-04 18:59 | -7.53999 | 146.87859 | 34271 ft | 470 kts | 349° |
| 2026-05-04 19:00 | -7.47520 | 146.86726 | 34272 ft | 471 kts | 349° |
| 2026-05-04 19:00 | -7.41073 | 146.85599 | 34244 ft | 472 kts | 349° |
| 2026-05-04 19:01 | -7.34564 | 146.84462 | 34220 ft | 471 kts | 349° |
| 2026-05-04 19:01 | -7.28071 | 146.83325 | 34164 ft | 472 kts | 349° |
| 2026-05-04 19:02 | -7.21584 | 146.82191 | 34174 ft | 471 kts | 350° |
| 2026-05-04 19:02 | -7.15147 | 146.81067 | 34159 ft | 472 kts | 350° |
| 2026-05-04 19:03 | -7.08620 | 146.79927 | 34153 ft | 472 kts | 350° |
| 2026-05-04 19:03 | -7.02116 | 146.78792 | 34165 ft | 472 kts | 350° |
| 2026-05-04 19:04 | -6.95636 | 146.77661 | 34166 ft | 472 kts | 350° |
| 2026-05-04 19:04 | -6.89131 | 146.76526 | 34124 ft | 472 kts | 350° |
| 2026-05-04 19:05 | -6.82620 | 146.75391 | 34095 ft | 473 kts | 350° |
| 2026-05-04 19:05 | -6.76140 | 146.74260 | 34051 ft | 473 kts | 350° |
| 2026-05-04 19:06 | -6.69629 | 146.73125 | 34031 ft | 473 kts | 350° |
| 2026-05-04 19:06 | -6.63117 | 146.71989 | 34022 ft | 473 kts | 350° |
| 2026-05-04 19:07 | -6.56640 | 146.70862 | 34015 ft | 472 kts | 350° |
| 2026-05-04 19:07 | -6.50030 | 146.70186 | 34608 ft | 479 kts | 355° |
| 2026-05-04 19:08 | -6.46721 | 146.69930 | 35520 ft | 471 kts | 355° |
| 2026-05-04 19:08 | -6.43437 | 146.69667 | 36030 ft | 471 kts | 355° |
| 2026-05-04 19:08 | -6.36871 | 146.69124 | 36110 ft | 469 kts | 355° |
| 2026-05-04 19:09 | -6.30373 | 146.68574 | 36202 ft | 468 kts | 355° |
| 2026-05-04 19:09 | -6.23886 | 146.68018 | 36279 ft | 468 kts | 355° |
| 2026-05-04 19:10 | -6.17380 | 146.67456 | 36254 ft | 468 kts | 355° |
| 2026-05-04 19:10 | -6.10866 | 146.66891 | 36223 ft | 467 kts | 355° |
| 2026-05-04 19:11 | -6.04345 | 146.66325 | 36192 ft | 467 kts | 355° |
| 2026-05-04 19:11 | -5.97903 | 146.65765 | 36175 ft | 466 kts | 355° |
| 2026-05-04 19:12 | -5.88100 | 146.64916 | 36091 ft | 469 kts | 355° |
| 2026-05-04 19:13 | -5.81618 | 146.64352 | 36041 ft | 467 kts | 355° |
| 2026-05-04 19:13 | -5.75094 | 146.63785 | 35995 ft | 467 kts | 355° |
| 2026-05-04 19:14 | -5.68593 | 146.63220 | 35964 ft | 467 kts | 355° |
| 2026-05-04 19:14 | -5.62114 | 146.62657 | 35939 ft | 467 kts | 355° |
| 2026-05-04 19:15 | -5.55596 | 146.62091 | 35931 ft | 467 kts | 355° |
| 2026-05-04 19:15 | -5.49114 | 146.61528 | 35916 ft | 468 kts | 355° |
| 2026-05-04 19:16 | -5.42603 | 146.60963 | 35895 ft | 468 kts | 355° |
| 2026-05-04 19:16 | -5.36094 | 146.60399 | 35895 ft | 467 kts | 355° |
| 2026-05-04 19:17 | -5.29633 | 146.59839 | 35895 ft | 466 kts | 355° |
| 2026-05-04 19:17 | -5.23123 | 146.59274 | 35889 ft | 467 kts | 355° |
| 2026-05-04 19:18 | -5.16595 | 146.58708 | 35876 ft | 467 kts | 355° |
| 2026-05-04 19:18 | -5.10110 | 146.58145 | 35879 ft | 468 kts | 355° |
| 2026-05-04 19:19 | -5.03640 | 146.57587 | 35868 ft | 467 kts | 355° |
| 2026-05-04 19:19 | -4.97130 | 146.57022 | 35865 ft | 467 kts | 355° |
| 2026-05-04 19:20 | -4.90611 | 146.56456 | 35861 ft | 467 kts | 355° |
| 2026-05-04 19:20 | -4.84145 | 146.55896 | 35861 ft | 467 kts | 355° |
| 2026-05-04 19:21 | -4.77659 | 146.55335 | 35852 ft | 467 kts | 355° |
| 2026-05-04 19:21 | -4.71149 | 146.54771 | 35847 ft | 468 kts | 355° |
| 2026-05-04 19:22 | -4.64658 | 146.54208 | 35849 ft | 467 kts | 355° |
| 2026-05-04 19:22 | -4.58158 | 146.53647 | 35847 ft | 468 kts | 355° |
| 2026-05-04 19:23 | -4.51646 | 146.53084 | 35846 ft | 467 kts | 355° |
| 2026-05-04 19:23 | -4.45177 | 146.52524 | 35847 ft | 467 kts | 355° |
| 2026-05-04 19:24 | -4.38648 | 146.51959 | 35846 ft | 467 kts | 355° |
| 2026-05-04 19:24 | -4.32173 | 146.51399 | 35846 ft | 467 kts | 355° |
| 2026-05-04 19:25 | -4.25673 | 146.50836 | 35848 ft | 468 kts | 355° |
| 2026-05-04 19:25 | -4.19189 | 146.50276 | 35848 ft | 468 kts | 355° |
| 2026-05-04 19:26 | -4.12694 | 146.49715 | 35846 ft | 466 kts | 355° |
| 2026-05-04 19:26 | -4.06196 | 146.49153 | 35846 ft | 467 kts | 355° |
| 2026-05-04 19:27 | -3.99658 | 146.48589 | 35846 ft | 467 kts | 355° |
| 2026-05-04 19:27 | -3.93168 | 146.48027 | 35845 ft | 467 kts | 355° |
| 2026-05-04 19:28 | -3.86681 | 146.47466 | 35858 ft | 467 kts | 355° |
| 2026-05-04 19:28 | -3.80159 | 146.46902 | 35868 ft | 467 kts | 355° |
| 2026-05-04 19:29 | -3.73698 | 146.46346 | 35869 ft | 467 kts | 355° |
| 2026-05-04 19:29 | -3.67185 | 146.45783 | 35869 ft | 467 kts | 355° |
| 2026-05-04 19:30 | -3.60681 | 146.45221 | 35869 ft | 467 kts | 355° |
| 2026-05-04 19:30 | -3.54179 | 146.44659 | 35868 ft | 468 kts | 355° |
| 2026-05-04 19:31 | -3.47680 | 146.44099 | 35868 ft | 468 kts | 355° |
| 2026-05-04 19:31 | -3.41180 | 146.43538 | 35869 ft | 468 kts | 355° |
| 2026-05-04 19:32 | -3.34679 | 146.42978 | 35869 ft | 467 kts | 355° |
| 2026-05-04 19:32 | -3.28201 | 146.42418 | 35868 ft | 468 kts | 355° |
| 2026-05-04 19:33 | -3.21654 | 146.41853 | 35867 ft | 467 kts | 355° |
| 2026-05-04 19:33 | -3.15162 | 146.41293 | 35868 ft | 468 kts | 355° |
| 2026-05-04 19:34 | -3.08675 | 146.40735 | 35867 ft | 467 kts | 355° |
| 2026-05-04 19:34 | -3.02161 | 146.40173 | 35867 ft | 467 kts | 355° |
| 2026-05-04 19:35 | -2.95674 | 146.39613 | 35860 ft | 466 kts | 355° |
| 2026-05-04 19:35 | -2.89226 | 146.39058 | 35852 ft | 466 kts | 355° |
| 2026-05-04 19:36 | -2.82733 | 146.38498 | 35853 ft | 467 kts | 355° |
| 2026-05-04 19:36 | -2.76197 | 146.37935 | 35850 ft | 467 kts | 355° |
| 2026-05-04 19:37 | -2.69709 | 146.37375 | 35849 ft | 468 kts | 355° |
| 2026-05-04 19:37 | -2.63198 | 146.36815 | 35848 ft | 468 kts | 355° |
| 2026-05-04 19:38 | -2.56710 | 146.36255 | 35848 ft | 468 kts | 355° |
| 2026-05-04 19:38 | -2.50218 | 146.35696 | 35849 ft | 467 kts | 355° |
| 2026-05-04 19:39 | -2.43710 | 146.35135 | 35848 ft | 468 kts | 355° |
| 2026-05-04 19:39 | -2.37235 | 146.34578 | 35851 ft | 467 kts | 355° |
| 2026-05-04 19:40 | -2.30722 | 146.34018 | 35852 ft | 468 kts | 355° |
| 2026-05-04 19:40 | -2.24191 | 146.33455 | 35853 ft | 468 kts | 355° |
| 2026-05-04 19:41 | -2.17679 | 146.32895 | 35849 ft | 468 kts | 355° |
| 2026-05-04 19:41 | -2.11204 | 146.32336 | 35852 ft | 468 kts | 356° |
| 2026-05-04 19:42 | -2.04706 | 146.31776 | 35859 ft | 468 kts | 356° |
| 2026-05-04 19:42 | -1.98188 | 146.31215 | 35865 ft | 468 kts | 356° |
| 2026-05-04 19:43 | -1.91691 | 146.30656 | 35864 ft | 468 kts | 356° |
| 2026-05-04 19:43 | -1.85178 | 146.30095 | 35869 ft | 469 kts | 356° |
| 2026-05-04 19:44 | -1.78657 | 146.29533 | 35869 ft | 468 kts | 356° |
| 2026-05-04 19:44 | -1.72100 | 146.28969 | 35868 ft | 469 kts | 356° |
| 2026-05-04 19:45 | -1.65583 | 146.28409 | 35869 ft | 469 kts | 356° |
| 2026-05-04 19:45 | -1.59052 | 146.27847 | 35868 ft | 469 kts | 356° |
| 2026-05-04 19:46 | -1.52534 | 146.27286 | 35867 ft | 469 kts | 356° |
| 2026-05-04 19:46 | -1.46043 | 146.26726 | 35868 ft | 470 kts | 356° |
| 2026-05-04 19:47 | -1.39513 | 146.26164 | 35866 ft | 469 kts | 356° |
| 2026-05-04 19:47 | -1.32963 | 146.25601 | 35867 ft | 470 kts | 356° |
| 2026-05-04 19:48 | -1.26450 | 146.25041 | 35866 ft | 470 kts | 356° |
| 2026-05-04 19:48 | -1.19873 | 146.24475 | 35866 ft | 471 kts | 356° |
| 2026-05-04 19:49 | -1.13319 | 146.23912 | 35864 ft | 472 kts | 356° |
| 2026-05-04 19:49 | -1.06757 | 146.23347 | 35863 ft | 472 kts | 356° |
| 2026-05-04 19:50 | -1.00176 | 146.22781 | 35853 ft | 473 kts | 356° |
| 2026-05-04 19:50 | -0.93596 | 146.22215 | 35846 ft | 472 kts | 356° |
| 2026-05-04 19:51 | -0.87048 | 146.21652 | 35848 ft | 472 kts | 356° |
| 2026-05-04 19:51 | -0.80490 | 146.21089 | 35848 ft | 471 kts | 356° |
| 2026-05-04 19:52 | -0.73929 | 146.20525 | 35847 ft | 472 kts | 357° |
| 2026-05-04 19:52 | -0.67358 | 146.19959 | 35847 ft | 472 kts | 357° |
| 2026-05-04 19:53 | -0.60805 | 146.19395 | 35847 ft | 472 kts | 357° |
| 2026-05-04 19:53 | -0.54230 | 146.18829 | 35847 ft | 472 kts | 357° |
| 2026-05-04 19:54 | -0.47655 | 146.18265 | 35847 ft | 472 kts | 357° |
| 2026-05-04 19:54 | -0.41090 | 146.17700 | 35847 ft | 471 kts | 357° |
| 2026-05-04 19:55 | -0.34542 | 146.17137 | 35846 ft | 471 kts | 357° |
| 2026-05-04 19:55 | -0.28003 | 146.16574 | 35846 ft | 471 kts | 357° |
| 2026-05-04 19:56 | -0.21459 | 146.16013 | 35846 ft | 472 kts | 357° |
| 2026-05-04 19:56 | -0.14875 | 146.15446 | 35846 ft | 471 kts | 357° |
| 2026-05-04 19:57 | -0.08346 | 146.14885 | 35847 ft | 470 kts | 357° |
| 2026-05-04 19:57 | -0.01834 | 146.14256 | 35838 ft | 471 kts | 352° |
| 2026-05-04 19:58 | 0.04477 | 146.12260 | 35861 ft | 477 kts | 339° |
| 2026-05-04 19:58 | 0.10609 | 146.09644 | 35865 ft | 477 kts | 339° |
| 2026-05-04 19:59 | 0.16730 | 146.07025 | 35868 ft | 477 kts | 339° |
| 2026-05-04 19:59 | 0.22826 | 146.04419 | 35868 ft | 476 kts | 339° |
| 2026-05-04 20:00 | 0.28933 | 146.01810 | 35869 ft | 476 kts | 339° |
| 2026-05-04 20:00 | 0.35034 | 145.99202 | 35868 ft | 476 kts | 339° |
| 2026-05-04 20:01 | 0.41149 | 145.96590 | 35869 ft | 478 kts | 339° |
| 2026-05-04 20:01 | 0.47297 | 145.93964 | 35869 ft | 478 kts | 339° |
| 2026-05-04 20:02 | 0.53436 | 145.91341 | 35869 ft | 478 kts | 339° |
| 2026-05-04 20:02 | 0.59547 | 145.88730 | 35869 ft | 478 kts | 339° |
| 2026-05-04 20:03 | 0.65669 | 145.86116 | 35868 ft | 477 kts | 339° |
| 2026-05-04 20:03 | 0.71778 | 145.83505 | 35868 ft | 477 kts | 339° |
| 2026-05-04 20:04 | 0.77932 | 145.80876 | 35860 ft | 478 kts | 339° |
| 2026-05-04 20:04 | 0.84057 | 145.78259 | 35851 ft | 479 kts | 339° |
| 2026-05-04 20:05 | 0.90183 | 145.75642 | 35850 ft | 478 kts | 339° |
| 2026-05-04 20:05 | 0.96319 | 145.73021 | 35848 ft | 479 kts | 339° |
| 2026-05-04 20:06 | 1.02454 | 145.70398 | 35848 ft | 478 kts | 339° |
| 2026-05-04 20:06 | 1.08576 | 145.67783 | 35848 ft | 478 kts | 339° |
| 2026-05-04 20:07 | 1.14739 | 145.65149 | 35850 ft | 479 kts | 339° |
| 2026-05-04 20:07 | 1.20903 | 145.62515 | 35852 ft | 479 kts | 339° |
| 2026-05-04 20:08 | 1.27022 | 145.59900 | 35852 ft | 479 kts | 339° |
| 2026-05-04 20:08 | 1.33157 | 145.57278 | 35849 ft | 479 kts | 339° |
| 2026-05-04 20:09 | 1.39330 | 145.54640 | 35851 ft | 480 kts | 339° |
| 2026-05-04 20:09 | 1.45472 | 145.52016 | 35849 ft | 480 kts | 339° |
| 2026-05-04 20:10 | 1.51613 | 145.49390 | 35850 ft | 479 kts | 339° |
| 2026-05-04 20:10 | 1.57756 | 145.46764 | 35848 ft | 479 kts | 339° |
| 2026-05-04 20:11 | 1.63921 | 145.44128 | 35858 ft | 480 kts | 339° |
| 2026-05-04 20:11 | 1.70072 | 145.41498 | 35867 ft | 480 kts | 339° |
| 2026-05-04 20:12 | 1.76241 | 145.38860 | 35869 ft | 479 kts | 339° |
| 2026-05-04 20:12 | 1.82380 | 145.36235 | 35870 ft | 479 kts | 339° |
| 2026-05-04 20:13 | 1.88507 | 145.33615 | 35866 ft | 479 kts | 339° |
| 2026-05-04 20:13 | 1.94649 | 145.30988 | 35866 ft | 479 kts | 338° |
| 2026-05-04 20:14 | 2.00818 | 145.28349 | 35867 ft | 480 kts | 338° |
| 2026-05-04 20:14 | 2.06968 | 145.25719 | 35866 ft | 480 kts | 338° |
| 2026-05-04 20:15 | 2.13115 | 145.23088 | 35868 ft | 480 kts | 338° |
| 2026-05-04 20:15 | 2.19252 | 145.20464 | 35868 ft | 480 kts | 339° |
| 2026-05-04 20:16 | 2.25416 | 145.17827 | 35868 ft | 480 kts | 338° |
| 2026-05-04 20:16 | 2.31582 | 145.15189 | 35868 ft | 481 kts | 338° |
| 2026-05-04 20:17 | 2.37740 | 145.12553 | 35864 ft | 480 kts | 339° |
| 2026-05-04 20:17 | 2.43902 | 145.09915 | 35860 ft | 479 kts | 339° |
| 2026-05-04 20:18 | 2.50018 | 145.07298 | 35857 ft | 481 kts | 339° |
| 2026-05-04 20:18 | 2.56199 | 145.04652 | 35860 ft | 481 kts | 339° |
| 2026-05-04 20:19 | 2.62366 | 145.02013 | 35859 ft | 481 kts | 338° |
| 2026-05-04 20:19 | 2.68571 | 144.99356 | 35855 ft | 481 kts | 338° |
| 2026-05-04 20:20 | 2.74731 | 144.96718 | 35850 ft | 481 kts | 339° |
| 2026-05-04 20:20 | 2.80869 | 144.94089 | 35847 ft | 480 kts | 339° |
| 2026-05-04 20:21 | 2.87036 | 144.91449 | 35847 ft | 482 kts | 339° |
| 2026-05-04 20:21 | 2.96305 | 144.87479 | 35848 ft | 482 kts | 338° |
| 2026-05-04 20:22 | 3.02489 | 144.84828 | 35848 ft | 482 kts | 339° |
| 2026-05-04 20:22 | 3.08666 | 144.82182 | 35847 ft | 482 kts | 338° |
| 2026-05-04 20:23 | 3.14835 | 144.79538 | 35847 ft | 481 kts | 339° |
| 2026-05-04 20:23 | 3.21008 | 144.76892 | 35849 ft | 482 kts | 339° |
| 2026-05-04 20:24 | 3.27190 | 144.74243 | 35848 ft | 482 kts | 339° |
| 2026-05-04 20:24 | 3.33380 | 144.71590 | 35852 ft | 482 kts | 339° |
| 2026-05-04 20:25 | 3.39553 | 144.68944 | 35856 ft | 482 kts | 338° |
| 2026-05-04 20:25 | 3.45731 | 144.66293 | 35859 ft | 482 kts | 339° |
| 2026-05-04 20:26 | 3.51912 | 144.63643 | 35867 ft | 483 kts | 339° |
| 2026-05-04 20:26 | 3.58125 | 144.60977 | 35869 ft | 482 kts | 339° |
| 2026-05-04 20:27 | 3.64279 | 144.58337 | 35869 ft | 483 kts | 339° |
| 2026-05-04 20:27 | 3.70495 | 144.55670 | 35870 ft | 483 kts | 339° |
| 2026-05-04 20:28 | 3.76662 | 144.53024 | 35869 ft | 483 kts | 339° |
| 2026-05-04 20:28 | 3.82888 | 144.50351 | 35869 ft | 483 kts | 339° |
| 2026-05-04 20:29 | 3.89078 | 144.47694 | 35870 ft | 483 kts | 339° |
| 2026-05-04 20:29 | 3.95249 | 144.45046 | 35870 ft | 484 kts | 339° |
| 2026-05-04 20:30 | 4.01474 | 144.42372 | 35871 ft | 483 kts | 339° |
| 2026-05-04 20:30 | 4.07647 | 144.39720 | 35872 ft | 483 kts | 339° |
| 2026-05-04 20:31 | 4.13881 | 144.37044 | 35872 ft | 483 kts | 339° |
| 2026-05-04 20:31 | 4.20070 | 144.34384 | 35863 ft | 484 kts | 339° |
| 2026-05-04 20:32 | 4.26246 | 144.31731 | 35855 ft | 484 kts | 339° |
| 2026-05-04 20:32 | 4.32448 | 144.29065 | 35850 ft | 485 kts | 339° |
| 2026-05-04 20:33 | 4.38676 | 144.26387 | 35848 ft | 484 kts | 339° |
| 2026-05-04 20:33 | 4.44871 | 144.23724 | 35846 ft | 483 kts | 339° |
| 2026-05-04 20:34 | 4.51091 | 144.21050 | 35847 ft | 484 kts | 339° |
| 2026-05-04 20:34 | 4.57258 | 144.18398 | 35846 ft | 484 kts | 339° |
| 2026-05-04 20:35 | 4.63467 | 144.15726 | 35848 ft | 484 kts | 339° |
| 2026-05-04 20:35 | 4.69679 | 144.13054 | 35847 ft | 484 kts | 339° |
| 2026-05-04 20:36 | 4.75896 | 144.10378 | 35846 ft | 484 kts | 339° |
| 2026-05-04 20:36 | 4.82080 | 144.07716 | 35847 ft | 483 kts | 339° |
| 2026-05-04 20:37 | 4.88249 | 144.05060 | 35845 ft | 483 kts | 339° |
| 2026-05-04 20:37 | 4.94471 | 144.02382 | 35847 ft | 483 kts | 339° |
| 2026-05-04 20:38 | 5.00620 | 143.99608 | 35843 ft | 485 kts | 333° |
| 2026-05-04 20:38 | 5.06465 | 143.96181 | 35847 ft | 486 kts | 331° |
| 2026-05-04 20:39 | 5.12275 | 143.92729 | 35848 ft | 485 kts | 331° |
| 2026-05-04 20:39 | 5.18082 | 143.89281 | 35854 ft | 484 kts | 331° |
| 2026-05-04 20:40 | 5.23872 | 143.85844 | 35864 ft | 484 kts | 331° |
| 2026-05-04 20:40 | 5.29690 | 143.82390 | 35869 ft | 484 kts | 331° |
| 2026-05-04 20:41 | 5.35510 | 143.78934 | 35869 ft | 484 kts | 331° |
| 2026-05-04 20:41 | 5.41298 | 143.75499 | 35869 ft | 484 kts | 331° |
| 2026-05-04 20:42 | 5.47117 | 143.72043 | 35870 ft | 484 kts | 331° |
| 2026-05-04 20:42 | 5.52907 | 143.68605 | 35870 ft | 483 kts | 331° |
| 2026-05-04 20:43 | 5.58702 | 143.65163 | 35870 ft | 483 kts | 331° |
| 2026-05-04 20:43 | 5.64512 | 143.61710 | 35870 ft | 483 kts | 331° |
| 2026-05-04 20:44 | 5.70321 | 143.58256 | 35870 ft | 483 kts | 331° |
| 2026-05-04 20:44 | 5.76074 | 143.54837 | 35870 ft | 483 kts | 331° |
| 2026-05-04 20:45 | 5.81889 | 143.51379 | 35870 ft | 484 kts | 331° |
| 2026-05-04 20:45 | 5.87665 | 143.47942 | 35869 ft | 483 kts | 331° |
| 2026-05-04 20:46 | 5.93482 | 143.44482 | 35870 ft | 483 kts | 331° |
| 2026-05-04 20:46 | 5.99259 | 143.41045 | 35869 ft | 483 kts | 331° |
| 2026-05-04 20:47 | 6.05077 | 143.37581 | 35872 ft | 484 kts | 331° |
| 2026-05-04 20:47 | 6.10858 | 143.34140 | 35869 ft | 483 kts | 331° |
| 2026-05-04 20:48 | 6.16657 | 143.30685 | 35867 ft | 483 kts | 331° |
| 2026-05-04 20:48 | 6.22451 | 143.27234 | 35863 ft | 483 kts | 331° |
| 2026-05-04 20:49 | 6.28229 | 143.23791 | 35857 ft | 483 kts | 331° |
| 2026-05-04 20:49 | 6.34030 | 143.20335 | 35858 ft | 483 kts | 331° |
| 2026-05-04 20:50 | 6.39812 | 143.16888 | 35854 ft | 483 kts | 331° |
| 2026-05-04 20:50 | 6.45595 | 143.13440 | 35851 ft | 482 kts | 331° |
| 2026-05-04 20:51 | 6.51407 | 143.09973 | 35851 ft | 483 kts | 331° |
| 2026-05-04 20:51 | 6.57167 | 143.06537 | 35845 ft | 482 kts | 331° |
| 2026-05-04 20:52 | 6.62965 | 143.03076 | 35847 ft | 482 kts | 331° |
| 2026-05-04 20:52 | 6.68748 | 142.99625 | 35848 ft | 482 kts | 331° |
| 2026-05-04 20:53 | 6.74488 | 142.96197 | 35848 ft | 482 kts | 331° |
| 2026-05-04 20:53 | 6.80280 | 142.92738 | 35846 ft | 482 kts | 331° |
| 2026-05-04 20:54 | 6.86076 | 142.89273 | 35848 ft | 481 kts | 331° |
| 2026-05-04 20:54 | 6.91834 | 142.85834 | 35855 ft | 482 kts | 331° |
| 2026-05-04 20:55 | 6.97616 | 142.82376 | 35865 ft | 482 kts | 331° |
| 2026-05-04 20:55 | 7.03394 | 142.78922 | 35867 ft | 482 kts | 331° |
| 2026-05-04 20:56 | 7.09122 | 142.75496 | 35868 ft | 481 kts | 331° |
| 2026-05-04 20:56 | 7.14924 | 142.72025 | 35869 ft | 481 kts | 331° |
| 2026-05-04 20:57 | 7.20677 | 142.68581 | 35869 ft | 481 kts | 331° |
| 2026-05-04 20:57 | 7.26408 | 142.65149 | 35870 ft | 481 kts | 331° |
| 2026-05-04 20:58 | 7.32172 | 142.61699 | 35868 ft | 481 kts | 330° |
| 2026-05-04 20:58 | 7.37963 | 142.58229 | 35871 ft | 482 kts | 330° |
| 2026-05-04 20:59 | 7.43735 | 142.54770 | 35870 ft | 481 kts | 330° |
| 2026-05-04 20:59 | 7.49502 | 142.51314 | 35869 ft | 481 kts | 330° |
| 2026-05-04 21:00 | 7.55252 | 142.47865 | 35870 ft | 480 kts | 331° |
| 2026-05-04 21:00 | 7.60973 | 142.44434 | 35869 ft | 481 kts | 330° |
| 2026-05-04 21:01 | 7.66768 | 142.40958 | 35870 ft | 481 kts | 330° |
| 2026-05-04 21:01 | 7.72521 | 142.37505 | 35870 ft | 481 kts | 330° |
| 2026-05-04 21:02 | 7.78252 | 142.34064 | 35867 ft | 482 kts | 330° |
| 2026-05-04 21:02 | 7.84020 | 142.30600 | 35873 ft | 481 kts | 330° |
| 2026-05-04 21:03 | 7.89792 | 142.27132 | 35884 ft | 481 kts | 330° |
| 2026-05-04 21:03 | 7.95556 | 142.23669 | 35885 ft | 481 kts | 330° |
| 2026-05-04 21:04 | 8.01300 | 142.20216 | 35889 ft | 480 kts | 330° |
| 2026-05-04 21:04 | 8.07054 | 142.16756 | 35889 ft | 481 kts | 330° |
| 2026-05-04 21:05 | 8.12817 | 142.13289 | 35889 ft | 481 kts | 330° |
| 2026-05-04 21:05 | 8.18540 | 142.09845 | 35888 ft | 481 kts | 330° |
| 2026-05-04 21:06 | 8.24292 | 142.06383 | 35890 ft | 481 kts | 330° |
| 2026-05-04 21:06 | 8.30047 | 142.02918 | 35884 ft | 481 kts | 330° |
| 2026-05-04 21:07 | 8.35827 | 141.99435 | 35878 ft | 481 kts | 330° |
| 2026-05-04 21:07 | 8.41564 | 141.95978 | 35879 ft | 481 kts | 330° |
| 2026-05-04 21:08 | 8.47318 | 141.92509 | 35887 ft | 481 kts | 330° |
| 2026-05-04 21:08 | 8.53076 | 141.89038 | 35889 ft | 480 kts | 330° |
| 2026-05-04 21:09 | 8.58833 | 141.85565 | 35889 ft | 481 kts | 330° |
| 2026-05-04 21:09 | 8.64563 | 141.82108 | 35889 ft | 481 kts | 330° |
| 2026-05-04 21:10 | 8.70331 | 141.78626 | 35889 ft | 481 kts | 330° |
| 2026-05-04 21:10 | 8.76104 | 141.75139 | 35883 ft | 481 kts | 330° |
| 2026-05-04 21:11 | 8.81859 | 141.71663 | 35873 ft | 481 kts | 330° |
| 2026-05-04 21:11 | 8.87572 | 141.68211 | 35869 ft | 480 kts | 330° |
| 2026-05-04 21:12 | 8.93324 | 141.64734 | 35869 ft | 480 kts | 330° |
| 2026-05-04 21:12 | 8.99066 | 141.61261 | 35869 ft | 480 kts | 330° |
| 2026-05-04 21:13 | 9.04788 | 141.57799 | 35868 ft | 480 kts | 329° |
| 2026-05-04 21:13 | 9.10570 | 141.54300 | 35868 ft | 481 kts | 330° |
| 2026-05-04 21:14 | 9.16316 | 141.50821 | 35870 ft | 481 kts | 330° |
| 2026-05-04 21:14 | 9.22052 | 141.47347 | 35869 ft | 480 kts | 330° |
| 2026-05-04 21:15 | 9.27780 | 141.43875 | 35870 ft | 480 kts | 330° |
| 2026-05-04 21:15 | 9.33529 | 141.40390 | 35869 ft | 480 kts | 330° |
| 2026-05-04 21:16 | 9.39239 | 141.36928 | 35869 ft | 480 kts | 330° |
| 2026-05-04 21:16 | 9.44991 | 141.33440 | 35868 ft | 481 kts | 329° |
| 2026-05-04 21:17 | 9.50740 | 141.29952 | 35866 ft | 481 kts | 329° |
| 2026-05-04 21:17 | 9.56492 | 141.26459 | 35869 ft | 481 kts | 329° |
| 2026-05-04 21:18 | 9.62259 | 141.22957 | 35876 ft | 481 kts | 329° |
| 2026-05-04 21:18 | 9.67984 | 141.19478 | 35880 ft | 481 kts | 329° |
| 2026-05-04 21:19 | 9.73722 | 141.15991 | 35883 ft | 480 kts | 329° |
| 2026-05-04 21:19 | 9.79466 | 141.12500 | 35883 ft | 481 kts | 329° |
| 2026-05-04 21:20 | 9.85252 | 141.08978 | 35888 ft | 482 kts | 329° |
| 2026-05-04 21:20 | 9.91006 | 141.05476 | 35886 ft | 483 kts | 329° |
| 2026-05-04 21:21 | 9.96776 | 141.01964 | 35888 ft | 483 kts | 329° |
| 2026-05-04 21:21 | 10.02745 | 140.98904 | 35894 ft | 481 kts | 339° |
| 2026-05-04 21:22 | 10.08990 | 140.96455 | 35890 ft | 480 kts | 339° |
| 2026-05-04 21:22 | 10.15252 | 140.94005 | 35889 ft | 480 kts | 339° |
| 2026-05-04 21:23 | 10.21470 | 140.91568 | 35889 ft | 480 kts | 339° |
| 2026-05-04 21:23 | 10.27729 | 140.89111 | 35890 ft | 481 kts | 339° |
| 2026-05-04 21:24 | 10.33991 | 140.86650 | 35890 ft | 483 kts | 339° |
| 2026-05-04 21:24 | 10.40276 | 140.84178 | 35889 ft | 483 kts | 339° |
| 2026-05-04 21:25 | 10.46569 | 140.81703 | 35890 ft | 481 kts | 339° |
| 2026-05-04 21:25 | 10.52823 | 140.79242 | 35890 ft | 482 kts | 339° |
| 2026-05-04 21:26 | 10.59086 | 140.76775 | 35889 ft | 481 kts | 339° |
| 2026-05-04 21:26 | 10.65292 | 140.74330 | 35889 ft | 481 kts | 339° |
| 2026-05-04 21:27 | 10.71575 | 140.71854 | 35890 ft | 481 kts | 338° |
| 2026-05-04 21:27 | 10.77831 | 140.69386 | 35889 ft | 481 kts | 338° |
| 2026-05-04 21:28 | 10.84070 | 140.66927 | 35890 ft | 483 kts | 338° |
| 2026-05-04 21:28 | 10.90322 | 140.64458 | 35889 ft | 480 kts | 339° |
| 2026-05-04 21:29 | 10.96556 | 140.61997 | 35888 ft | 476 kts | 339° |
| 2026-05-04 21:29 | 11.02751 | 140.59551 | 35893 ft | 477 kts | 338° |
| 2026-05-04 21:30 | 11.08964 | 140.57094 | 35896 ft | 478 kts | 338° |
| 2026-05-04 21:30 | 11.15172 | 140.54640 | 35895 ft | 478 kts | 338° |
| 2026-05-04 21:31 | 11.24507 | 140.50948 | 35886 ft | 479 kts | 338° |
| 2026-05-04 21:32 | 11.30717 | 140.48489 | 35892 ft | 477 kts | 338° |
| 2026-05-04 21:32 | 11.36918 | 140.46034 | 35894 ft | 476 kts | 338° |
| 2026-05-04 21:33 | 11.43114 | 140.43579 | 35891 ft | 477 kts | 338° |
| 2026-05-04 21:33 | 11.49293 | 140.41128 | 35888 ft | 477 kts | 338° |
| 2026-05-04 21:34 | 11.55516 | 140.38661 | 35889 ft | 478 kts | 338° |
| 2026-05-04 21:34 | 11.61745 | 140.36189 | 35889 ft | 479 kts | 338° |
| 2026-05-04 21:35 | 11.67959 | 140.33723 | 35890 ft | 478 kts | 338° |
| 2026-05-04 21:35 | 11.74165 | 140.31258 | 35889 ft | 477 kts | 338° |
| 2026-05-04 21:36 | 11.80349 | 140.28801 | 35890 ft | 476 kts | 338° |
| 2026-05-04 21:36 | 11.86538 | 140.26341 | 35890 ft | 476 kts | 338° |
| 2026-05-04 21:37 | 11.92738 | 140.23874 | 35889 ft | 477 kts | 338° |
| 2026-05-04 21:37 | 11.98930 | 140.21411 | 35891 ft | 477 kts | 338° |
| 2026-05-04 21:38 | 12.05141 | 140.18938 | 35894 ft | 477 kts | 338° |
| 2026-05-04 21:38 | 12.11327 | 140.16473 | 35890 ft | 477 kts | 338° |
| 2026-05-04 21:39 | 12.17502 | 140.14014 | 35894 ft | 475 kts | 338° |
| 2026-05-04 21:39 | 12.23674 | 140.11552 | 35893 ft | 475 kts | 338° |
| 2026-05-04 21:40 | 12.29844 | 140.09091 | 35893 ft | 475 kts | 338° |
| 2026-05-04 21:40 | 12.36000 | 140.06635 | 35898 ft | 476 kts | 338° |
| 2026-05-04 21:41 | 12.42211 | 140.04153 | 35896 ft | 475 kts | 338° |
| 2026-05-04 21:41 | 12.48353 | 140.01700 | 35898 ft | 475 kts | 338° |
| 2026-05-04 21:42 | 12.54533 | 139.99229 | 35899 ft | 475 kts | 338° |
| 2026-05-04 21:42 | 12.60688 | 139.96768 | 35900 ft | 475 kts | 338° |
| 2026-05-04 21:43 | 12.66856 | 139.94299 | 35908 ft | 474 kts | 338° |
| 2026-05-04 21:43 | 12.72995 | 139.91843 | 35909 ft | 473 kts | 338° |
| 2026-05-04 21:44 | 12.79155 | 139.89375 | 35910 ft | 474 kts | 337° |
| 2026-05-04 21:44 | 12.85285 | 139.86919 | 35909 ft | 474 kts | 338° |
| 2026-05-04 21:45 | 12.91416 | 139.84459 | 35909 ft | 474 kts | 337° |
| 2026-05-04 21:45 | 12.97570 | 139.81990 | 35911 ft | 473 kts | 337° |
| 2026-05-04 21:46 | 13.03719 | 139.79521 | 35909 ft | 472 kts | 337° |
| 2026-05-04 21:46 | 13.09850 | 139.77060 | 35908 ft | 472 kts | 337° |
| 2026-05-04 21:47 | 13.15989 | 139.74593 | 35909 ft | 472 kts | 337° |
| 2026-05-04 21:47 | 13.22118 | 139.72128 | 35912 ft | 472 kts | 337° |
| 2026-05-04 21:48 | 13.28244 | 139.69664 | 35914 ft | 472 kts | 337° |
| 2026-05-04 21:48 | 13.34373 | 139.67198 | 35914 ft | 472 kts | 337° |
| 2026-05-04 21:49 | 13.40483 | 139.64737 | 35916 ft | 473 kts | 337° |
| 2026-05-04 21:49 | 13.46650 | 139.62253 | 35917 ft | 473 kts | 337° |
| 2026-05-04 21:50 | 13.52758 | 139.59790 | 35918 ft | 472 kts | 337° |
| 2026-05-04 21:50 | 13.58893 | 139.57315 | 35917 ft | 471 kts | 337° |
| 2026-05-04 21:51 | 13.64992 | 139.54854 | 35919 ft | 472 kts | 337° |
| 2026-05-04 21:51 | 13.71139 | 139.52371 | 35923 ft | 472 kts | 337° |
| 2026-05-04 21:52 | 13.77242 | 139.49905 | 35922 ft | 472 kts | 337° |
| 2026-05-04 21:52 | 13.83385 | 139.47423 | 35924 ft | 472 kts | 336° |
| 2026-05-04 21:53 | 13.89494 | 139.44951 | 35924 ft | 471 kts | 336° |
| 2026-05-04 21:53 | 13.95589 | 139.42484 | 35927 ft | 472 kts | 336° |
| 2026-05-04 21:54 | 14.01714 | 139.40004 | 35928 ft | 471 kts | 336° |
| 2026-05-04 21:54 | 14.07845 | 139.37520 | 35927 ft | 471 kts | 336° |
| 2026-05-04 21:55 | 14.13949 | 139.35045 | 35926 ft | 471 kts | 336° |
| 2026-05-04 21:55 | 14.20057 | 139.32567 | 35930 ft | 471 kts | 336° |
| 2026-05-04 21:56 | 14.26174 | 139.30084 | 35931 ft | 471 kts | 336° |
| 2026-05-04 21:56 | 14.32269 | 139.27608 | 35929 ft | 471 kts | 336° |
| 2026-05-04 21:57 | 14.38367 | 139.25130 | 35933 ft | 470 kts | 336° |
| 2026-05-04 21:57 | 14.44463 | 139.22652 | 35932 ft | 469 kts | 336° |
| 2026-05-04 21:58 | 14.50520 | 139.20186 | 35930 ft | 470 kts | 336° |
| 2026-05-04 21:58 | 14.56647 | 139.17693 | 35930 ft | 470 kts | 336° |
| 2026-05-04 21:59 | 14.62716 | 139.15221 | 35931 ft | 470 kts | 336° |
| 2026-05-04 21:59 | 14.68823 | 139.12732 | 35931 ft | 470 kts | 336° |
| 2026-05-04 22:00 | 14.74929 | 139.10239 | 35933 ft | 469 kts | 336° |
| 2026-05-04 22:00 | 14.80988 | 139.07767 | 35940 ft | 468 kts | 336° |
| 2026-05-04 22:01 | 14.87045 | 139.05295 | 35946 ft | 469 kts | 336° |
| 2026-05-04 22:01 | 14.93141 | 139.02803 | 35948 ft | 469 kts | 336° |
| 2026-05-04 22:02 | 14.99229 | 139.00316 | 35950 ft | 469 kts | 336° |
| 2026-05-04 22:02 | 15.05342 | 138.97900 | 35948 ft | 470 kts | 337° |
| 2026-05-04 22:03 | 15.11463 | 138.95528 | 35948 ft | 469 kts | 337° |
| 2026-05-04 22:03 | 15.17616 | 138.93137 | 35950 ft | 468 kts | 337° |
| 2026-05-04 22:04 | 15.23708 | 138.90767 | 35946 ft | 468 kts | 337° |
| 2026-05-04 22:04 | 15.29782 | 138.88400 | 35944 ft | 467 kts | 336° |
| 2026-05-04 22:05 | 15.35909 | 138.86009 | 35939 ft | 468 kts | 336° |
| 2026-05-04 22:05 | 15.42010 | 138.83627 | 35936 ft | 467 kts | 337° |
| 2026-05-04 22:06 | 15.48097 | 138.81250 | 35937 ft | 467 kts | 336° |
| 2026-05-04 22:06 | 15.54177 | 138.78873 | 35939 ft | 467 kts | 336° |
| 2026-05-04 22:07 | 15.60254 | 138.76495 | 35940 ft | 466 kts | 336° |
| 2026-05-04 22:07 | 15.66315 | 138.74124 | 35941 ft | 466 kts | 337° |
| 2026-05-04 22:08 | 15.72424 | 138.71732 | 35945 ft | 466 kts | 336° |
| 2026-05-04 22:08 | 15.78470 | 138.69362 | 35944 ft | 466 kts | 336° |
| 2026-05-04 22:09 | 15.84548 | 138.66978 | 35944 ft | 466 kts | 336° |
| 2026-05-04 22:09 | 15.90603 | 138.64601 | 35943 ft | 465 kts | 336° |
| 2026-05-04 22:10 | 15.96700 | 138.62207 | 35943 ft | 466 kts | 336° |
| 2026-05-04 22:10 | 16.02769 | 138.59824 | 35941 ft | 466 kts | 336° |
| 2026-05-04 22:11 | 16.08859 | 138.57426 | 35938 ft | 466 kts | 336° |
| 2026-05-04 22:11 | 16.14891 | 138.55054 | 35940 ft | 465 kts | 336° |
| 2026-05-04 22:12 | 16.20986 | 138.52655 | 35940 ft | 466 kts | 336° |
| 2026-05-04 22:12 | 16.27023 | 138.50276 | 35937 ft | 464 kts | 336° |
| 2026-05-04 22:13 | 16.33099 | 138.47882 | 35942 ft | 465 kts | 336° |
| 2026-05-04 22:13 | 16.39152 | 138.45494 | 35945 ft | 465 kts | 336° |
| 2026-05-04 22:14 | 16.45187 | 138.43112 | 35949 ft | 464 kts | 336° |
| 2026-05-04 22:14 | 16.51248 | 138.40717 | 35955 ft | 464 kts | 336° |
| 2026-05-04 22:15 | 16.57307 | 138.38322 | 35951 ft | 465 kts | 336° |
| 2026-05-04 22:15 | 16.63362 | 138.35927 | 35957 ft | 464 kts | 336° |
| 2026-05-04 22:16 | 16.69402 | 138.33536 | 35962 ft | 464 kts | 336° |
| 2026-05-04 22:16 | 16.75442 | 138.31145 | 35962 ft | 463 kts | 336° |
| 2026-05-04 22:17 | 16.81497 | 138.28744 | 35970 ft | 462 kts | 336° |
| 2026-05-04 22:17 | 16.87507 | 138.26361 | 35970 ft | 462 kts | 336° |
| 2026-05-04 22:18 | 16.93508 | 138.23978 | 35972 ft | 463 kts | 336° |
| 2026-05-04 22:18 | 16.99545 | 138.21580 | 35971 ft | 463 kts | 336° |
| 2026-05-04 22:19 | 17.05565 | 138.19188 | 35963 ft | 463 kts | 336° |
| 2026-05-04 22:19 | 17.11616 | 138.16782 | 35958 ft | 462 kts | 336° |
| 2026-05-04 22:20 | 17.17636 | 138.14386 | 35960 ft | 462 kts | 336° |
| 2026-05-04 22:20 | 17.23658 | 138.11987 | 35961 ft | 462 kts | 336° |
| 2026-05-04 22:21 | 17.29649 | 138.09599 | 35968 ft | 463 kts | 337° |
| 2026-05-04 22:21 | 17.35705 | 138.07185 | 35960 ft | 464 kts | 337° |
| 2026-05-04 22:22 | 17.41743 | 138.04774 | 35969 ft | 464 kts | 337° |
| 2026-05-04 22:22 | 17.47781 | 138.02364 | 35974 ft | 465 kts | 337° |
| 2026-05-04 22:23 | 17.53858 | 137.99934 | 35976 ft | 465 kts | 337° |
| 2026-05-04 22:23 | 17.59916 | 137.97511 | 35975 ft | 465 kts | 337° |
| 2026-05-04 22:24 | 17.65968 | 137.95090 | 35979 ft | 465 kts | 337° |
| 2026-05-04 22:24 | 17.72016 | 137.92667 | 35982 ft | 465 kts | 337° |
| 2026-05-04 22:25 | 17.78101 | 137.90228 | 35985 ft | 465 kts | 337° |
| 2026-05-04 22:25 | 17.84129 | 137.87810 | 35986 ft | 465 kts | 337° |
| 2026-05-04 22:26 | 17.90191 | 137.85376 | 35986 ft | 465 kts | 337° |
| 2026-05-04 22:26 | 17.96215 | 137.82956 | 35989 ft | 465 kts | 337° |
| 2026-05-04 22:27 | 18.02277 | 137.80519 | 35992 ft | 466 kts | 337° |
| 2026-05-04 22:27 | 18.08348 | 137.78076 | 35990 ft | 465 kts | 337° |
| 2026-05-04 22:28 | 18.14408 | 137.75638 | 35993 ft | 465 kts | 337° |
| 2026-05-04 22:28 | 18.20430 | 137.73212 | 35992 ft | 466 kts | 337° |
| 2026-05-04 22:29 | 18.26491 | 137.70767 | 35993 ft | 465 kts | 337° |
| 2026-05-04 22:29 | 18.32560 | 137.68318 | 35992 ft | 465 kts | 337° |
| 2026-05-04 22:30 | 18.38634 | 137.65866 | 35990 ft | 466 kts | 338° |
| 2026-05-04 22:30 | 18.44703 | 137.63414 | 35986 ft | 466 kts | 337° |
| 2026-05-04 22:31 | 18.50756 | 137.60965 | 35990 ft | 466 kts | 338° |
| 2026-05-04 22:31 | 18.56802 | 137.58519 | 35987 ft | 465 kts | 338° |
| 2026-05-04 22:32 | 18.62852 | 137.56068 | 35988 ft | 466 kts | 338° |
| 2026-05-04 22:32 | 18.68897 | 137.53618 | 35989 ft | 466 kts | 338° |
| 2026-05-04 22:33 | 18.74968 | 137.51155 | 35989 ft | 466 kts | 338° |
| 2026-05-04 22:33 | 18.81056 | 137.48683 | 35988 ft | 467 kts | 338° |
| 2026-05-04 22:34 | 18.87121 | 137.46219 | 35986 ft | 466 kts | 338° |
| 2026-05-04 22:34 | 18.93151 | 137.43768 | 35988 ft | 465 kts | 338° |
| 2026-05-04 22:35 | 18.99223 | 137.41296 | 35989 ft | 466 kts | 338° |
| 2026-05-04 22:35 | 19.05265 | 137.38837 | 35990 ft | 466 kts | 338° |
| 2026-05-04 22:36 | 19.11327 | 137.36366 | 35996 ft | 466 kts | 338° |
| 2026-05-04 22:36 | 19.17375 | 137.33897 | 36000 ft | 466 kts | 337° |
| 2026-05-04 22:37 | 19.23456 | 137.31416 | 36002 ft | 466 kts | 337° |
| 2026-05-04 22:37 | 19.29507 | 137.28944 | 36006 ft | 466 kts | 337° |
| 2026-05-04 22:38 | 19.35539 | 137.26479 | 36005 ft | 466 kts | 337° |
| 2026-05-04 22:38 | 19.41597 | 137.23999 | 36005 ft | 466 kts | 337° |
| 2026-05-04 22:39 | 19.47660 | 137.21516 | 36005 ft | 465 kts | 337° |
| 2026-05-04 22:39 | 19.53708 | 137.19038 | 36005 ft | 465 kts | 337° |
| 2026-05-04 22:40 | 19.59748 | 137.16560 | 36012 ft | 466 kts | 337° |
| 2026-05-04 22:40 | 19.65787 | 137.14082 | 36012 ft | 465 kts | 337° |
| 2026-05-04 22:41 | 19.71833 | 137.11598 | 36013 ft | 465 kts | 337° |
| 2026-05-04 22:41 | 19.77855 | 137.09122 | 36012 ft | 465 kts | 337° |
| 2026-05-04 22:42 | 19.83909 | 137.06632 | 36013 ft | 466 kts | 337° |
| 2026-05-04 22:42 | 19.90003 | 137.04121 | 36014 ft | 467 kts | 337° |
| 2026-05-04 22:43 | 19.96026 | 137.01639 | 36012 ft | 465 kts | 337° |
| 2026-05-04 22:43 | 20.02087 | 136.99187 | 36021 ft | 470 kts | 340° |
| 2026-05-04 22:43 | 20.05232 | 136.98090 | 36366 ft | 474 kts | 340° |
| 2026-05-04 22:44 | 20.08345 | 136.97014 | 37068 ft | 469 kts | 340° |
| 2026-05-04 22:44 | 20.11446 | 136.95940 | 37782 ft | 464 kts | 340° |
| 2026-05-04 22:44 | 20.14498 | 136.94875 | 38007 ft | 466 kts | 340° |
| 2026-05-04 22:45 | 20.20699 | 136.92708 | 38009 ft | 466 kts | 340° |
| 2026-05-04 22:45 | 20.29907 | 136.89471 | 38014 ft | 466 kts | 340° |
| 2026-05-04 22:46 | 20.36105 | 136.87289 | 38009 ft | 466 kts | 340° |
| 2026-05-04 22:46 | 20.42256 | 136.85120 | 38011 ft | 466 kts | 340° |
| 2026-05-04 22:47 | 20.48405 | 136.82948 | 38009 ft | 465 kts | 339° |
| 2026-05-04 22:47 | 20.54550 | 136.80775 | 38011 ft | 466 kts | 339° |
| 2026-05-04 22:48 | 20.60735 | 136.78587 | 38011 ft | 466 kts | 339° |
| 2026-05-04 22:48 | 20.66878 | 136.76411 | 38009 ft | 467 kts | 339° |
| 2026-05-04 22:49 | 20.73066 | 136.74219 | 38011 ft | 467 kts | 339° |
| 2026-05-04 22:49 | 20.79207 | 136.72038 | 38011 ft | 467 kts | 339° |
| 2026-05-04 22:50 | 20.85407 | 136.69836 | 38012 ft | 467 kts | 339° |
| 2026-05-04 22:50 | 20.91561 | 136.67650 | 38009 ft | 467 kts | 339° |
| 2026-05-04 22:51 | 20.97724 | 136.65459 | 38009 ft | 467 kts | 339° |
| 2026-05-04 22:51 | 21.03918 | 136.63254 | 38012 ft | 467 kts | 339° |
| 2026-05-04 22:52 | 21.10111 | 136.61046 | 38015 ft | 469 kts | 339° |
| 2026-05-04 22:52 | 21.16282 | 136.58846 | 38015 ft | 468 kts | 339° |
| 2026-05-04 22:53 | 21.22480 | 136.56633 | 38015 ft | 468 kts | 339° |
| 2026-05-04 22:53 | 21.28668 | 136.54422 | 38016 ft | 468 kts | 339° |
| 2026-05-04 22:54 | 21.34864 | 136.52206 | 38016 ft | 467 kts | 339° |
| 2026-05-04 22:54 | 21.41036 | 136.49997 | 38016 ft | 468 kts | 339° |
| 2026-05-04 22:55 | 21.47206 | 136.47786 | 38018 ft | 468 kts | 339° |
| 2026-05-04 22:55 | 21.53403 | 136.45564 | 38020 ft | 469 kts | 339° |
| 2026-05-04 22:56 | 21.59605 | 136.43339 | 38020 ft | 469 kts | 339° |
| 2026-05-04 22:56 | 21.65800 | 136.41115 | 38023 ft | 468 kts | 339° |
| 2026-05-04 22:57 | 21.71987 | 136.38890 | 38027 ft | 469 kts | 339° |
| 2026-05-04 22:57 | 21.78177 | 136.36662 | 38027 ft | 469 kts | 338° |
| 2026-05-04 22:58 | 21.84366 | 136.34433 | 38033 ft | 469 kts | 338° |
| 2026-05-04 22:58 | 21.90554 | 136.32202 | 38035 ft | 469 kts | 338° |
| 2026-05-04 22:59 | 21.96741 | 136.29970 | 38039 ft | 470 kts | 338° |
| 2026-05-04 22:59 | 22.02946 | 136.27728 | 38039 ft | 470 kts | 338° |
| 2026-05-04 23:00 | 22.09170 | 136.25479 | 38038 ft | 469 kts | 338° |
| 2026-05-04 23:00 | 22.15342 | 136.23247 | 38037 ft | 468 kts | 338° |
| 2026-05-04 23:01 | 22.21543 | 136.21001 | 38034 ft | 467 kts | 338° |
| 2026-05-04 23:01 | 22.27723 | 136.18759 | 38035 ft | 468 kts | 338° |
| 2026-05-04 23:02 | 22.33870 | 136.16528 | 38035 ft | 468 kts | 338° |
| 2026-05-04 23:02 | 22.40047 | 136.14285 | 38035 ft | 468 kts | 338° |
| 2026-05-04 23:03 | 22.46232 | 136.12036 | 38036 ft | 469 kts | 338° |
| 2026-05-04 23:03 | 22.52430 | 136.09781 | 38035 ft | 468 kts | 338° |
| 2026-05-04 23:04 | 22.58626 | 136.07526 | 38034 ft | 467 kts | 338° |
| 2026-05-04 23:04 | 22.64804 | 136.05273 | 38035 ft | 468 kts | 338° |
| 2026-05-04 23:05 | 22.70936 | 136.03035 | 38034 ft | 466 kts | 338° |
| 2026-05-04 23:05 | 22.77109 | 136.00780 | 38035 ft | 467 kts | 338° |
| 2026-05-04 23:06 | 22.83297 | 135.98518 | 38035 ft | 468 kts | 338° |
| 2026-05-04 23:06 | 22.89470 | 135.96258 | 38033 ft | 467 kts | 338° |
| 2026-05-04 23:07 | 22.95633 | 135.94002 | 38033 ft | 466 kts | 338° |
| 2026-05-04 23:07 | 23.01751 | 135.91757 | 38033 ft | 467 kts | 338° |
| 2026-05-04 23:08 | 23.07922 | 135.89493 | 38034 ft | 466 kts | 338° |
| 2026-05-04 23:08 | 23.14081 | 135.87230 | 38037 ft | 466 kts | 338° |
| 2026-05-04 23:09 | 23.20250 | 135.84961 | 38035 ft | 467 kts | 337° |
| 2026-05-04 23:09 | 23.26365 | 135.82710 | 38040 ft | 466 kts | 337° |
| 2026-05-04 23:10 | 23.32540 | 135.80435 | 38041 ft | 466 kts | 337° |
| 2026-05-04 23:10 | 23.38658 | 135.78180 | 38039 ft | 466 kts | 337° |
| 2026-05-04 23:11 | 23.44816 | 135.75906 | 38041 ft | 466 kts | 337° |
| 2026-05-04 23:11 | 23.50957 | 135.73637 | 38042 ft | 466 kts | 337° |
| 2026-05-04 23:12 | 23.57121 | 135.71356 | 38045 ft | 467 kts | 337° |
| 2026-05-04 23:12 | 23.63258 | 135.69084 | 38044 ft | 466 kts | 337° |
| 2026-05-04 23:13 | 23.69444 | 135.66791 | 38048 ft | 466 kts | 337° |
| 2026-05-04 23:13 | 23.75576 | 135.64516 | 38046 ft | 466 kts | 337° |
| 2026-05-04 23:14 | 23.81708 | 135.62239 | 38046 ft | 466 kts | 337° |
| 2026-05-04 23:14 | 23.87879 | 135.59946 | 38045 ft | 465 kts | 337° |
| 2026-05-04 23:15 | 23.93999 | 135.57667 | 38048 ft | 466 kts | 337° |
| 2026-05-04 23:15 | 24.00141 | 135.55380 | 38044 ft | 466 kts | 337° |
| 2026-05-04 23:16 | 24.06290 | 135.53087 | 38039 ft | 467 kts | 337° |
| 2026-05-04 23:16 | 24.12436 | 135.50794 | 38043 ft | 466 kts | 336° |
| 2026-05-04 23:17 | 24.18574 | 135.48500 | 38044 ft | 465 kts | 336° |
| 2026-05-04 23:17 | 24.24698 | 135.46210 | 38046 ft | 466 kts | 336° |
| 2026-05-04 23:18 | 24.30856 | 135.43904 | 38050 ft | 466 kts | 336° |
| 2026-05-04 23:18 | 24.37019 | 135.41594 | 38045 ft | 466 kts | 336° |
| 2026-05-04 23:19 | 24.43130 | 135.39302 | 38043 ft | 467 kts | 336° |
| 2026-05-04 23:19 | 24.49288 | 135.36989 | 38046 ft | 465 kts | 336° |
| 2026-05-04 23:20 | 24.55434 | 135.34679 | 38049 ft | 465 kts | 336° |
| 2026-05-04 23:20 | 24.61543 | 135.32379 | 38065 ft | 465 kts | 335° |
| 2026-05-04 23:21 | 24.67676 | 135.30069 | 38062 ft | 466 kts | 335° |
| 2026-05-04 23:21 | 24.73829 | 135.27748 | 38067 ft | 465 kts | 335° |
| 2026-05-04 23:22 | 24.79952 | 135.25436 | 38071 ft | 465 kts | 335° |
| 2026-05-04 23:22 | 24.86053 | 135.23131 | 38070 ft | 465 kts | 335° |
| 2026-05-04 23:23 | 24.92215 | 135.20801 | 38073 ft | 466 kts | 335° |
| 2026-05-04 23:23 | 24.98347 | 135.18478 | 38075 ft | 465 kts | 335° |
| 2026-05-04 23:24 | 25.04466 | 135.16157 | 38079 ft | 467 kts | 335° |
| 2026-05-04 23:24 | 25.10639 | 135.13815 | 38079 ft | 466 kts | 335° |
| 2026-05-04 23:25 | 25.16760 | 135.11491 | 38078 ft | 465 kts | 335° |
| 2026-05-04 23:25 | 25.22857 | 135.09172 | 38074 ft | 466 kts | 334° |
| 2026-05-04 23:26 | 25.29015 | 135.06827 | 38077 ft | 466 kts | 334° |
| 2026-05-04 23:26 | 25.35142 | 135.04492 | 38078 ft | 467 kts | 334° |
| 2026-05-04 23:27 | 25.41284 | 135.02148 | 38079 ft | 466 kts | 334° |
| 2026-05-04 23:27 | 25.47403 | 134.99800 | 38080 ft | 464 kts | 332° |
| 2026-05-04 23:28 | 25.52950 | 134.96451 | 38086 ft | 451 kts | 320° |
| 2026-05-04 23:28 | 25.58171 | 134.92517 | 38086 ft | 451 kts | 319° |
| 2026-05-04 23:29 | 25.63347 | 134.88599 | 38085 ft | 451 kts | 319° |
| 2026-05-04 23:29 | 25.68513 | 134.84677 | 38083 ft | 449 kts | 319° |
| 2026-05-04 23:30 | 25.73661 | 134.80763 | 38091 ft | 450 kts | 319° |
| 2026-05-04 23:30 | 25.78839 | 134.76823 | 38093 ft | 451 kts | 319° |
| 2026-05-04 23:31 | 25.84003 | 134.72890 | 38085 ft | 448 kts | 319° |
| 2026-05-04 23:31 | 25.89170 | 134.68945 | 38092 ft | 450 kts | 318° |
| 2026-05-04 23:32 | 25.94314 | 134.65018 | 38092 ft | 449 kts | 318° |
| 2026-05-04 23:32 | 25.99436 | 134.61101 | 38094 ft | 448 kts | 318° |
| 2026-05-04 23:33 | 26.04585 | 134.57159 | 38093 ft | 449 kts | 318° |
| 2026-05-04 23:33 | 26.09722 | 134.53224 | 38095 ft | 448 kts | 318° |
| 2026-05-04 23:34 | 26.14825 | 134.49309 | 38093 ft | 447 kts | 318° |
| 2026-05-04 23:34 | 26.19937 | 134.45383 | 38091 ft | 447 kts | 318° |
| 2026-05-04 23:35 | 26.25048 | 134.41454 | 38091 ft | 446 kts | 318° |
| 2026-05-04 23:35 | 26.30156 | 134.37521 | 38088 ft | 447 kts | 317° |
| 2026-05-04 23:36 | 26.35286 | 134.33569 | 38109 ft | 446 kts | 317° |
| 2026-05-04 23:36 | 26.40379 | 134.29640 | 38114 ft | 447 kts | 317° |
| 2026-05-04 23:37 | 26.45488 | 134.25697 | 38109 ft | 445 kts | 317° |
| 2026-05-04 23:37 | 26.50562 | 134.21774 | 38112 ft | 444 kts | 317° |
| 2026-05-04 23:38 | 26.55633 | 134.17851 | 38112 ft | 444 kts | 317° |
| 2026-05-04 23:38 | 26.60703 | 134.13924 | 38113 ft | 443 kts | 317° |
| 2026-05-04 23:39 | 26.65784 | 134.09982 | 38112 ft | 444 kts | 317° |
| 2026-05-04 23:39 | 26.70841 | 134.06056 | 38114 ft | 442 kts | 317° |
| 2026-05-04 23:40 | 26.75884 | 134.02136 | 38114 ft | 442 kts | 316° |
| 2026-05-04 23:40 | 26.80937 | 133.98201 | 38111 ft | 443 kts | 316° |
| 2026-05-04 23:41 | 26.85969 | 133.94281 | 38115 ft | 441 kts | 316° |
| 2026-05-04 23:41 | 26.91029 | 133.90332 | 38114 ft | 441 kts | 316° |
| 2026-05-04 23:42 | 26.96030 | 133.86426 | 38115 ft | 440 kts | 316° |
| 2026-05-04 23:42 | 27.01057 | 133.82494 | 38115 ft | 440 kts | 316° |
| 2026-05-04 23:43 | 27.06107 | 133.78540 | 38117 ft | 443 kts | 316° |
| 2026-05-04 23:43 | 27.11119 | 133.74614 | 38113 ft | 439 kts | 316° |
| 2026-05-04 23:44 | 27.16123 | 133.70688 | 38110 ft | 440 kts | 316° |
| 2026-05-04 23:44 | 27.21162 | 133.66728 | 38116 ft | 442 kts | 316° |
| 2026-05-04 23:45 | 27.26173 | 133.62790 | 38110 ft | 439 kts | 316° |
| 2026-05-04 23:45 | 27.31201 | 133.58829 | 38113 ft | 443 kts | 316° |
| 2026-05-04 23:46 | 27.36243 | 133.54857 | 38112 ft | 441 kts | 316° |
| 2026-05-04 23:46 | 27.41267 | 133.50893 | 38114 ft | 444 kts | 316° |
| 2026-05-04 23:47 | 27.46286 | 133.46928 | 38116 ft | 443 kts | 316° |
| 2026-05-04 23:47 | 27.51332 | 133.42940 | 38112 ft | 440 kts | 316° |
| 2026-05-04 23:48 | 27.56366 | 133.38951 | 38116 ft | 444 kts | 316° |
| 2026-05-04 23:48 | 27.61381 | 133.34978 | 38114 ft | 444 kts | 315° |
| 2026-05-04 23:49 | 27.66433 | 133.30971 | 38137 ft | 442 kts | 315° |
| 2026-05-04 23:49 | 27.71460 | 133.26976 | 38134 ft | 444 kts | 315° |
| 2026-05-04 23:50 | 27.76490 | 133.22974 | 38141 ft | 446 kts | 315° |
| 2026-05-04 23:50 | 27.81570 | 133.18932 | 38136 ft | 444 kts | 315° |
| 2026-05-04 23:51 | 27.86606 | 133.14916 | 38143 ft | 446 kts | 315° |
| 2026-05-04 23:51 | 27.91672 | 133.10879 | 38140 ft | 444 kts | 315° |
| 2026-05-04 23:52 | 27.96720 | 133.06857 | 38139 ft | 446 kts | 315° |
| 2026-05-04 23:52 | 28.01787 | 133.02817 | 38136 ft | 445 kts | 315° |
| 2026-05-04 23:53 | 28.06828 | 132.98790 | 38139 ft | 445 kts | 315° |
| 2026-05-04 23:53 | 28.11903 | 132.94734 | 38130 ft | 442 kts | 315° |
| 2026-05-04 23:54 | 28.16896 | 132.90735 | 38136 ft | 445 kts | 315° |
| 2026-05-04 23:54 | 28.21965 | 132.86675 | 38132 ft | 440 kts | 315° |
| 2026-05-04 23:55 | 28.26928 | 132.82690 | 38131 ft | 442 kts | 315° |
| 2026-05-04 23:56 | 28.34444 | 132.76654 | 38124 ft | 434 kts | 315° |
| 2026-05-04 23:56 | 28.39386 | 132.72670 | 38131 ft | 439 kts | 315° |
| 2026-05-04 23:57 | 28.44324 | 132.68687 | 38133 ft | 434 kts | 315° |
| 2026-05-04 23:57 | 28.49241 | 132.64712 | 38136 ft | 438 kts | 315° |
| 2026-05-04 23:58 | 28.54189 | 132.60712 | 38134 ft | 436 kts | 315° |
| 2026-05-04 23:58 | 28.59149 | 132.56694 | 38131 ft | 435 kts | 315° |
| 2026-05-04 23:59 | 28.64011 | 132.52757 | 38129 ft | 429 kts | 315° |
| 2026-05-04 23:59 | 28.68907 | 132.48779 | 38130 ft | 433 kts | 315° |
| 2026-05-05 00:00 | 28.73792 | 132.44814 | 38126 ft | 429 kts | 315° |
| 2026-05-05 00:00 | 28.78688 | 132.40830 | 38130 ft | 428 kts | 315° |
| 2026-05-05 00:01 | 28.83509 | 132.36903 | 38122 ft | 429 kts | 315° |
| 2026-05-05 00:01 | 28.88367 | 132.32941 | 38148 ft | 431 kts | 315° |
| 2026-05-05 00:02 | 28.93219 | 132.28981 | 38145 ft | 427 kts | 314° |
| 2026-05-05 00:02 | 28.98040 | 132.25041 | 38152 ft | 425 kts | 315° |
| 2026-05-05 00:03 | 29.02848 | 132.21106 | 38159 ft | 428 kts | 313° |
| 2026-05-05 00:03 | 29.07669 | 132.17157 | 38168 ft | 424 kts | 314° |
| 2026-05-05 00:04 | 29.12507 | 132.13185 | 38161 ft | 430 kts | 314° |
| 2026-05-05 00:04 | 29.17308 | 132.09248 | 38164 ft | 421 kts | 314° |
| 2026-05-05 00:05 | 29.22094 | 132.05312 | 38169 ft | 425 kts | 313° |
| 2026-05-05 00:05 | 29.26900 | 132.01353 | 38154 ft | 425 kts | 313° |
| 2026-05-05 00:06 | 29.31726 | 131.97374 | 38160 ft | 429 kts | 314° |
| 2026-05-05 00:06 | 29.36518 | 131.93425 | 38164 ft | 425 kts | 313° |
| 2026-05-05 00:07 | 29.41314 | 131.89461 | 38154 ft | 428 kts | 313° |
| 2026-05-05 00:07 | 29.46154 | 131.85454 | 38138 ft | 429 kts | 313° |
| 2026-05-05 00:08 | 29.50946 | 131.81485 | 38142 ft | 425 kts | 313° |
| 2026-05-05 00:08 | 29.55777 | 131.77473 | 38143 ft | 425 kts | 313° |
| 2026-05-05 00:09 | 29.60585 | 131.73532 | 38140 ft | 431 kts | 315° |
| 2026-05-05 00:09 | 29.65643 | 131.69829 | 38148 ft | 429 kts | 316° |
| 2026-05-05 00:10 | 29.70693 | 131.66121 | 38135 ft | 434 kts | 315° |
| 2026-05-05 00:10 | 29.75758 | 131.62386 | 38135 ft | 432 kts | 315° |
| 2026-05-05 00:11 | 29.80778 | 131.58673 | 38135 ft | 430 kts | 315° |
| 2026-05-05 00:11 | 29.85840 | 131.54913 | 38135 ft | 436 kts | 315° |
| 2026-05-05 00:12 | 29.90910 | 131.51149 | 38135 ft | 433 kts | 315° |
| 2026-05-05 00:12 | 29.95954 | 131.47397 | 38131 ft | 433 kts | 315° |
| 2026-05-05 00:13 | 30.01023 | 131.43619 | 38132 ft | 434 kts | 315° |
| 2026-05-05 00:13 | 30.06119 | 131.39821 | 38131 ft | 433 kts | 315° |
| 2026-05-05 00:14 | 30.11181 | 131.36043 | 38123 ft | 437 kts | 315° |
| 2026-05-05 00:14 | 30.16294 | 131.32228 | 38141 ft | 432 kts | 314° |
| 2026-05-05 00:15 | 30.21370 | 131.28427 | 38149 ft | 434 kts | 315° |
| 2026-05-05 00:15 | 30.26404 | 131.24648 | 38148 ft | 437 kts | 314° |
| 2026-05-05 00:16 | 30.31507 | 131.20816 | 38148 ft | 433 kts | 314° |
| 2026-05-05 00:16 | 30.36578 | 131.16998 | 38147 ft | 434 kts | 314° |
| 2026-05-05 00:17 | 30.41616 | 131.13203 | 38146 ft | 433 kts | 314° |
| 2026-05-05 00:17 | 30.46863 | 131.09634 | 38146 ft | 450 kts | 324° |
| 2026-05-05 00:17 | 30.49851 | 131.08429 | 38156 ft | 465 kts | 331° |
| 2026-05-05 00:18 | 30.52998 | 131.07451 | 38150 ft | 470 kts | 332° |
| 2026-05-05 00:18 | 30.59332 | 131.05530 | 38154 ft | 468 kts | 332° |
| 2026-05-05 00:19 | 30.65598 | 131.03615 | 38155 ft | 471 kts | 332° |
| 2026-05-05 00:19 | 30.71896 | 131.01686 | 38158 ft | 467 kts | 332° |
| 2026-05-05 00:20 | 30.78203 | 130.99745 | 38152 ft | 464 kts | 332° |
| 2026-05-05 00:20 | 30.84466 | 130.97812 | 38152 ft | 464 kts | 332° |
| 2026-05-05 00:21 | 30.90735 | 130.95869 | 38156 ft | 470 kts | 332° |
| 2026-05-05 00:21 | 30.97065 | 130.93910 | 38158 ft | 469 kts | 332° |
| 2026-05-05 00:22 | 31.03326 | 130.91972 | 38163 ft | 467 kts | 332° |
| 2026-05-05 00:22 | 31.09654 | 130.90006 | 38160 ft | 466 kts | 332° |
| 2026-05-05 00:23 | 31.15923 | 130.88055 | 38158 ft | 469 kts | 332° |
| 2026-05-05 00:23 | 31.22230 | 130.86093 | 38153 ft | 467 kts | 332° |
| 2026-05-05 00:24 | 31.28534 | 130.84125 | 38153 ft | 468 kts | 332° |
| 2026-05-05 00:24 | 31.34816 | 130.82161 | 38158 ft | 470 kts | 332° |
| 2026-05-05 00:25 | 31.41093 | 130.80200 | 38154 ft | 470 kts | 332° |
| 2026-05-05 00:25 | 31.47416 | 130.78220 | 38157 ft | 469 kts | 332° |
| 2026-05-05 00:26 | 31.53699 | 130.76250 | 38156 ft | 467 kts | 332° |
| 2026-05-05 00:26 | 31.59946 | 130.74286 | 38155 ft | 466 kts | 332° |
| 2026-05-05 00:27 | 31.66208 | 130.72316 | 38159 ft | 468 kts | 332° |
| 2026-05-05 00:27 | 31.72531 | 130.70325 | 38160 ft | 468 kts | 332° |
| 2026-05-05 00:28 | 31.78814 | 130.68344 | 38156 ft | 468 kts | 332° |
| 2026-05-05 00:28 | 31.85117 | 130.66353 | 38164 ft | 469 kts | 332° |
| 2026-05-05 00:29 | 31.91417 | 130.64362 | 38161 ft | 470 kts | 332° |
| 2026-05-05 00:29 | 31.97710 | 130.62369 | 38160 ft | 468 kts | 332° |
| 2026-05-05 00:30 | 32.04010 | 130.60370 | 38162 ft | 472 kts | 332° |
| 2026-05-05 00:30 | 32.10298 | 130.58377 | 38159 ft | 466 kts | 332° |
| 2026-05-05 00:31 | 32.16606 | 130.56367 | 38145 ft | 468 kts | 332° |
| 2026-05-05 00:31 | 32.22863 | 130.54373 | 38149 ft | 470 kts | 332° |
| 2026-05-05 00:32 | 32.29173 | 130.52361 | 38146 ft | 470 kts | 332° |
| 2026-05-05 00:32 | 32.35406 | 130.50264 | 38145 ft | 463 kts | 331° |
| 2026-05-05 00:33 | 32.41635 | 130.48097 | 38145 ft | 467 kts | 331° |
| 2026-05-05 00:33 | 32.47824 | 130.45952 | 38142 ft | 465 kts | 331° |
| 2026-05-05 00:34 | 32.54050 | 130.43791 | 38145 ft | 466 kts | 331° |
| 2026-05-05 00:34 | 32.60249 | 130.41640 | 38146 ft | 466 kts | 332° |
| 2026-05-05 00:35 | 32.66456 | 130.39484 | 38151 ft | 466 kts | 332° |
| 2026-05-05 00:35 | 32.72636 | 130.37335 | 38156 ft | 465 kts | 332° |
| 2026-05-05 00:36 | 32.78827 | 130.35181 | 38153 ft | 462 kts | 332° |
| 2026-05-05 00:36 | 32.85022 | 130.33017 | 38179 ft | 466 kts | 331° |
| 2026-05-05 00:37 | 32.91230 | 130.30850 | 38178 ft | 463 kts | 332° |
| 2026-05-05 00:37 | 32.97424 | 130.28682 | 38174 ft | 466 kts | 332° |
| 2026-05-05 00:38 | 33.03605 | 130.26518 | 38175 ft | 465 kts | 332° |
| 2026-05-05 00:38 | 33.09800 | 130.24345 | 38174 ft | 464 kts | 332° |
| 2026-05-05 00:39 | 33.15987 | 130.22170 | 38168 ft | 466 kts | 332° |
| 2026-05-05 00:39 | 33.22200 | 130.19984 | 38166 ft | 464 kts | 332° |
| 2026-05-05 00:40 | 33.28376 | 130.17810 | 38166 ft | 462 kts | 332° |
| 2026-05-05 00:40 | 33.34571 | 130.15624 | 38169 ft | 466 kts | 332° |
| 2026-05-05 00:41 | 33.40760 | 130.13438 | 38167 ft | 467 kts | 332° |
| 2026-05-05 00:41 | 33.46953 | 130.11252 | 38168 ft | 465 kts | 333° |
| 2026-05-05 00:42 | 33.53157 | 130.09053 | 38165 ft | 466 kts | 332° |
| 2026-05-05 00:42 | 33.59342 | 130.06860 | 38164 ft | 466 kts | 333° |
| 2026-05-05 00:43 | 33.65573 | 130.04648 | 38169 ft | 465 kts | 333° |
| 2026-05-05 00:43 | 33.71741 | 130.02454 | 38174 ft | 466 kts | 333° |
| 2026-05-05 00:44 | 33.77939 | 130.00247 | 38166 ft | 463 kts | 333° |
| 2026-05-05 00:44 | 33.84148 | 129.98030 | 38168 ft | 466 kts | 333° |
| 2026-05-05 00:45 | 33.90356 | 129.95811 | 38160 ft | 469 kts | 333° |
| 2026-05-05 00:45 | 33.93448 | 129.94710 | 38157 ft | 458 kts | 333° |
| 2026-05-05 00:45 | 33.96449 | 129.93646 | 38156 ft | 441 kts | 333° |
| 2026-05-05 00:45 | 33.99320 | 129.92625 | 38160 ft | 425 kts | 332° |
| 2026-05-05 00:46 | 34.02128 | 129.91625 | 38150 ft | 408 kts | 332° |
| 2026-05-05 00:46 | 34.04785 | 129.90674 | 38146 ft | 392 kts | 332° |
| 2026-05-05 00:46 | 34.07378 | 129.89741 | 38161 ft | 389 kts | 331° |
| 2026-05-05 00:47 | 34.12621 | 129.87839 | 38160 ft | 397 kts | 332° |
| 2026-05-05 00:47 | 34.17919 | 129.85928 | 38158 ft | 396 kts | 332° |
| 2026-05-05 00:48 | 34.23203 | 129.84023 | 38161 ft | 398 kts | 332° |
| 2026-05-05 00:48 | 34.28587 | 129.82443 | 38140 ft | 415 kts | 347° |
| 2026-05-05 00:48 | 34.31552 | 129.82658 | 38137 ft | 434 kts | 2° |
| 2026-05-05 00:49 | 34.34442 | 129.83823 | 38145 ft | 450 kts | 20° |
| 2026-05-05 00:49 | 34.37066 | 129.85963 | 38138 ft | 467 kts | 38° |
| 2026-05-05 00:49 | 34.39172 | 129.89029 | 38136 ft | 479 kts | 58° |
| 2026-05-05 00:49 | 34.40466 | 129.92734 | 38140 ft | 484 kts | 78° |
| 2026-05-05 00:50 | 34.40808 | 129.96764 | 38144 ft | 479 kts | 98° |
| 2026-05-05 00:50 | 34.40184 | 130.00629 | 38129 ft | 466 kts | 117° |
| 2026-05-05 00:50 | 34.38720 | 130.04021 | 38154 ft | 450 kts | 136° |
| 2026-05-05 00:50 | 34.36618 | 130.06706 | 38134 ft | 432 kts | 153° |
| 2026-05-05 00:51 | 34.34127 | 130.08536 | 38134 ft | 411 kts | 168° |
| 2026-05-05 00:51 | 34.31475 | 130.09611 | 38161 ft | 400 kts | 175° |
| 2026-05-05 00:51 | 34.28767 | 130.10509 | 38150 ft | 399 kts | 176° |
| 2026-05-05 00:52 | 34.23456 | 130.12311 | 38160 ft | 397 kts | 175° |
| 2026-05-05 00:52 | 34.18176 | 130.13316 | 38141 ft | 372 kts | 195° |
| 2026-05-05 00:52 | 34.15660 | 130.12776 | 38154 ft | 358 kts | 207° |
| 2026-05-05 00:53 | 34.13411 | 130.11636 | 38143 ft | 345 kts | 218° |
| 2026-05-05 00:53 | 34.09927 | 130.08005 | 38155 ft | 327 kts | 237° |
| 2026-05-05 00:54 | 34.07971 | 130.03134 | 38154 ft | 324 kts | 256° |
| 2026-05-05 00:54 | 34.07748 | 129.97755 | 38143 ft | 328 kts | 275° |
| 2026-05-05 00:55 | 34.09351 | 129.92516 | 38151 ft | 345 kts | 294° |
| 2026-05-05 00:55 | 34.10849 | 129.90202 | 38141 ft | 358 kts | 305° |
| 2026-05-05 00:55 | 34.12790 | 129.88261 | 38150 ft | 373 kts | 316° |
| 2026-05-05 00:56 | 34.17379 | 129.85118 | 38138 ft | 389 kts | 327° |
| 2026-05-05 00:56 | 34.22277 | 129.82457 | 38158 ft | 377 kts | 315° |
| 2026-05-05 00:57 | 34.26549 | 129.78746 | 38153 ft | 384 kts | 314° |
| 2026-05-05 00:57 | 34.30937 | 129.74872 | 38154 ft | 395 kts | 314° |
| 2026-05-05 00:58 | 34.35409 | 129.70917 | 38152 ft | 406 kts | 314° |
| 2026-05-05 00:58 | 34.40028 | 129.66829 | 38144 ft | 419 kts | 314° |
| 2026-05-05 00:59 | 34.44824 | 129.62578 | 38152 ft | 432 kts | 315° |
| 2026-05-05 00:59 | 34.49721 | 129.58234 | 38155 ft | 441 kts | 315° |
| 2026-05-05 01:00 | 34.54633 | 129.53880 | 38153 ft | 439 kts | 315° |
| 2026-05-05 01:00 | 34.59596 | 129.49472 | 38147 ft | 440 kts | 315° |
| 2026-05-05 01:01 | 34.64536 | 129.45081 | 38150 ft | 441 kts | 316° |
| 2026-05-05 01:01 | 34.69470 | 129.40686 | 38153 ft | 442 kts | 316° |
| 2026-05-05 01:02 | 34.74429 | 129.36264 | 38150 ft | 442 kts | 316° |
| 2026-05-05 01:02 | 34.78939 | 129.32236 | 38166 ft | 442 kts | 315° |
| 2026-05-05 01:03 | 34.83749 | 129.27650 | 38167 ft | 439 kts | 313° |
| 2026-05-05 01:03 | 34.88538 | 129.22995 | 38165 ft | 441 kts | 314° |
| 2026-05-05 01:04 | 34.93831 | 129.19116 | 38170 ft | 453 kts | 324° |
| 2026-05-05 01:04 | 35.02171 | 129.13838 | 37868 ft | 441 kts | 324° |
| 2026-05-05 01:05 | 35.04895 | 129.12109 | 37010 ft | 446 kts | 324° |
| 2026-05-05 01:05 | 35.07639 | 129.10364 | 35944 ft | 455 kts | 325° |
| 2026-05-05 01:05 | 35.10468 | 129.08563 | 35129 ft | 460 kts | 326° |
| 2026-05-05 01:05 | 35.13302 | 129.06761 | 34450 ft | 461 kts | 326° |
| 2026-05-05 01:06 | 35.16118 | 129.04968 | 33747 ft | 461 kts | 326° |
| 2026-05-05 01:06 | 35.18973 | 129.03149 | 32891 ft | 463 kts | 327° |
| 2026-05-05 01:06 | 35.21825 | 129.01331 | 31996 ft | 466 kts | 327° |
| 2026-05-05 01:06 | 35.24670 | 128.99516 | 31203 ft | 466 kts | 328° |
| 2026-05-05 01:07 | 35.27563 | 128.97670 | 30632 ft | 465 kts | 328° |
| 2026-05-05 01:07 | 35.30449 | 128.95824 | 30145 ft | 474 kts | 328° |
| 2026-05-05 01:07 | 35.33346 | 128.93971 | 29759 ft | 468 kts | 328° |
| 2026-05-05 01:07 | 35.36205 | 128.92145 | 29502 ft | 464 kts | 328° |
| 2026-05-05 01:08 | 35.39067 | 128.90312 | 29246 ft | 464 kts | 328° |
| 2026-05-05 01:08 | 35.41931 | 128.88475 | 28991 ft | 463 kts | 328° |
| 2026-05-05 01:08 | 35.44780 | 128.86649 | 28730 ft | 461 kts | 328° |
| 2026-05-05 01:08 | 35.47616 | 128.84828 | 28467 ft | 459 kts | 328° |
| 2026-05-05 01:09 | 35.50441 | 128.83014 | 28221 ft | 458 kts | 328° |
| 2026-05-05 01:09 | 35.53267 | 128.81198 | 27965 ft | 456 kts | 329° |
| 2026-05-05 01:09 | 35.56071 | 128.79395 | 27704 ft | 455 kts | 329° |
| 2026-05-05 01:09 | 35.58861 | 128.77597 | 27448 ft | 454 kts | 329° |
| 2026-05-05 01:10 | 35.61653 | 128.75798 | 27190 ft | 452 kts | 329° |
| 2026-05-05 01:10 | 35.64441 | 128.74002 | 26930 ft | 451 kts | 329° |
| 2026-05-05 01:10 | 35.67209 | 128.72214 | 26675 ft | 449 kts | 329° |
| 2026-05-05 01:10 | 35.69957 | 128.70439 | 26422 ft | 448 kts | 329° |
| 2026-05-05 01:11 | 35.72708 | 128.68661 | 26186 ft | 447 kts | 329° |
| 2026-05-05 01:11 | 35.75441 | 128.66895 | 26141 ft | 445 kts | 329° |
| 2026-05-05 01:11 | 35.78204 | 128.65105 | 26137 ft | 447 kts | 329° |
| 2026-05-05 01:11 | 35.80945 | 128.63329 | 26141 ft | 447 kts | 329° |
| 2026-05-05 01:12 | 35.83705 | 128.61539 | 26146 ft | 447 kts | 329° |
| 2026-05-05 01:12 | 35.86464 | 128.59749 | 26137 ft | 447 kts | 329° |
| 2026-05-05 01:12 | 35.89196 | 128.57974 | 26136 ft | 448 kts | 329° |
| 2026-05-05 01:12 | 35.91974 | 128.56169 | 26141 ft | 447 kts | 329° |
| 2026-05-05 01:13 | 35.94714 | 128.54387 | 26138 ft | 447 kts | 329° |
| 2026-05-05 01:13 | 35.97463 | 128.52597 | 26130 ft | 447 kts | 329° |
| 2026-05-05 01:13 | 36.00213 | 128.50806 | 26136 ft | 447 kts | 329° |
| 2026-05-05 01:13 | 36.02996 | 128.48990 | 26138 ft | 447 kts | 329° |
| 2026-05-05 01:14 | 36.05732 | 128.47205 | 26134 ft | 447 kts | 330° |
| 2026-05-05 01:14 | 36.08483 | 128.45409 | 26127 ft | 447 kts | 330° |
| 2026-05-05 01:14 | 36.11257 | 128.43596 | 26129 ft | 447 kts | 330° |
| 2026-05-05 01:14 | 36.13990 | 128.41808 | 26123 ft | 446 kts | 330° |
| 2026-05-05 01:15 | 36.16741 | 128.40007 | 26125 ft | 446 kts | 330° |
| 2026-05-05 01:15 | 36.19471 | 128.38219 | 26128 ft | 446 kts | 330° |
| 2026-05-05 01:15 | 36.22221 | 128.36415 | 26123 ft | 447 kts | 330° |
| 2026-05-05 01:15 | 36.24983 | 128.34602 | 26118 ft | 447 kts | 329° |
| 2026-05-05 01:16 | 36.27731 | 128.32797 | 26124 ft | 447 kts | 329° |
| 2026-05-05 01:16 | 36.30461 | 128.31003 | 26123 ft | 447 kts | 329° |
| 2026-05-05 01:16 | 36.33232 | 128.29179 | 26131 ft | 447 kts | 329° |
| 2026-05-05 01:16 | 36.35979 | 128.27371 | 26119 ft | 447 kts | 329° |
| 2026-05-05 01:17 | 36.38728 | 128.25560 | 26131 ft | 446 kts | 329° |
| 2026-05-05 01:17 | 36.41467 | 128.23753 | 26130 ft | 446 kts | 330° |
| 2026-05-05 01:17 | 36.44217 | 128.21939 | 26128 ft | 446 kts | 330° |
| 2026-05-05 01:17 | 36.46941 | 128.20140 | 26133 ft | 447 kts | 330° |
| 2026-05-05 01:18 | 36.49687 | 128.18326 | 26128 ft | 447 kts | 330° |
| 2026-05-05 01:18 | 36.52429 | 128.16511 | 26132 ft | 446 kts | 330° |
| 2026-05-05 01:18 | 36.55180 | 128.14690 | 26131 ft | 446 kts | 330° |
| 2026-05-05 01:18 | 36.57901 | 128.12888 | 25990 ft | 447 kts | 330° |
| 2026-05-05 01:19 | 36.60640 | 128.11070 | 25739 ft | 444 kts | 330° |
| 2026-05-05 01:19 | 36.63363 | 128.09264 | 25479 ft | 442 kts | 330° |
| 2026-05-05 01:19 | 36.66077 | 128.07461 | 25224 ft | 440 kts | 330° |
| 2026-05-05 01:19 | 36.68745 | 128.05687 | 24969 ft | 435 kts | 330° |
| 2026-05-05 01:20 | 36.71396 | 128.03925 | 24695 ft | 422 kts | 330° |
| 2026-05-05 01:20 | 36.73930 | 128.02239 | 24443 ft | 410 kts | 330° |
| 2026-05-05 01:20 | 36.76431 | 128.00574 | 24186 ft | 399 kts | 330° |
| 2026-05-05 01:20 | 36.78852 | 127.98959 | 23931 ft | 392 kts | 330° |
| 2026-05-05 01:21 | 36.81233 | 127.97367 | 23683 ft | 393 kts | 330° |
| 2026-05-05 01:21 | 36.83487 | 127.95490 | 23414 ft | 390 kts | 319° |
| 2026-05-05 01:21 | 36.85409 | 127.93102 | 23145 ft | 388 kts | 308° |
| 2026-05-05 01:21 | 36.87020 | 127.90421 | 22885 ft | 384 kts | 305° |
| 2026-05-05 01:22 | 36.88559 | 127.87739 | 22555 ft | 375 kts | 304° |
| 2026-05-05 01:22 | 36.90052 | 127.85117 | 22128 ft | 371 kts | 304° |
| 2026-05-05 01:22 | 36.91525 | 127.82517 | 21651 ft | 369 kts | 304° |
| 2026-05-05 01:22 | 36.93019 | 127.79873 | 21148 ft | 382 kts | 304° |
| 2026-05-05 01:23 | 36.94564 | 127.77134 | 20615 ft | 383 kts | 304° |
| 2026-05-05 01:23 | 36.96081 | 127.74444 | 20096 ft | 380 kts | 304° |
| 2026-05-05 01:23 | 36.97586 | 127.71770 | 19605 ft | 377 kts | 304° |
| 2026-05-05 01:23 | 36.99087 | 127.69100 | 19100 ft | 376 kts | 304° |
| 2026-05-05 01:24 | 37.00583 | 127.66438 | 18587 ft | 375 kts | 304° |
| 2026-05-05 01:24 | 37.02075 | 127.63772 | 18194 ft | 370 kts | 303° |
| 2026-05-05 01:24 | 37.03266 | 127.60978 | 18145 ft | 372 kts | 292° |
| 2026-05-05 01:24 | 37.04268 | 127.57975 | 18135 ft | 371 kts | 291° |
| 2026-05-05 01:25 | 37.05154 | 127.54944 | 18129 ft | 370 kts | 284° |
| 2026-05-05 01:25 | 37.05742 | 127.51821 | 18131 ft | 370 kts | 282° |
| 2026-05-05 01:25 | 37.06292 | 127.48696 | 18134 ft | 370 kts | 281° |
| 2026-05-05 01:25 | 37.06841 | 127.45561 | 18131 ft | 370 kts | 281° |
| 2026-05-05 01:26 | 37.07391 | 127.42423 | 18138 ft | 371 kts | 281° |
| 2026-05-05 01:26 | 37.07942 | 127.39247 | 18135 ft | 371 kts | 282° |
| 2026-05-05 01:26 | 37.08490 | 127.36101 | 18134 ft | 371 kts | 282° |
| 2026-05-05 01:26 | 37.09034 | 127.32958 | 18155 ft | 372 kts | 281° |
| 2026-05-05 01:27 | 37.09582 | 127.29829 | 18132 ft | 371 kts | 281° |
| 2026-05-05 01:27 | 37.10138 | 127.26658 | 18150 ft | 372 kts | 281° |
| 2026-05-05 01:27 | 37.10691 | 127.23481 | 18139 ft | 371 kts | 281° |
| 2026-05-05 01:27 | 37.11243 | 127.20309 | 18138 ft | 371 kts | 281° |
| 2026-05-05 01:28 | 37.11792 | 127.17166 | 18140 ft | 370 kts | 281° |
| 2026-05-05 01:28 | 37.12340 | 127.14037 | 18140 ft | 371 kts | 281° |
| 2026-05-05 01:28 | 37.12888 | 127.10906 | 18140 ft | 370 kts | 281° |
| 2026-05-05 01:28 | 37.13437 | 127.07772 | 18142 ft | 371 kts | 281° |
| 2026-05-05 01:29 | 37.13987 | 127.04631 | 18144 ft | 371 kts | 281° |
| 2026-05-05 01:29 | 37.14535 | 127.01497 | 18057 ft | 366 kts | 281° |
| 2026-05-05 01:29 | 37.15078 | 126.98372 | 17575 ft | 365 kts | 281° |
| 2026-05-05 01:29 | 37.15611 | 126.95274 | 17024 ft | 366 kts | 281° |
| 2026-05-05 01:30 | 37.16135 | 126.92179 | 16544 ft | 364 kts | 281° |
| 2026-05-05 01:30 | 37.16654 | 126.89081 | 16097 ft | 362 kts | 281° |
| 2026-05-05 01:30 | 37.17164 | 126.86021 | 15665 ft | 359 kts | 281° |
| 2026-05-05 01:30 | 37.17670 | 126.82981 | 15247 ft | 356 kts | 281° |
| 2026-05-05 01:31 | 37.18173 | 126.79985 | 15154 ft | 356 kts | 281° |
| 2026-05-05 01:31 | 37.18687 | 126.76922 | 15121 ft | 355 kts | 281° |
| 2026-05-05 01:31 | 37.19190 | 126.73931 | 14835 ft | 351 kts | 281° |
| 2026-05-05 01:31 | 37.19694 | 126.70937 | 14337 ft | 353 kts | 281° |
| 2026-05-05 01:32 | 37.20194 | 126.67953 | 13917 ft | 352 kts | 281° |
| 2026-05-05 01:32 | 37.20691 | 126.64967 | 13548 ft | 349 kts | 281° |
| 2026-05-05 01:32 | 37.21184 | 126.61997 | 13202 ft | 346 kts | 281° |
| 2026-05-05 01:32 | 37.21671 | 126.59078 | 13010 ft | 342 kts | 281° |
| 2026-05-05 01:33 | 37.22156 | 126.56165 | 12979 ft | 344 kts | 281° |
| 2026-05-05 01:33 | 37.22615 | 126.53209 | 12976 ft | 343 kts | 276° |
| 2026-05-05 01:33 | 37.22772 | 126.50281 | 12852 ft | 338 kts | 272° |
| 2026-05-05 01:33 | 37.22858 | 126.47322 | 12387 ft | 337 kts | 271° |
| 2026-05-05 01:34 | 37.22939 | 126.44430 | 11890 ft | 336 kts | 271° |
| 2026-05-05 01:34 | 37.23022 | 126.41507 | 11481 ft | 333 kts | 271° |
| 2026-05-05 01:34 | 37.23101 | 126.38628 | 11073 ft | 330 kts | 271° |
| 2026-05-05 01:34 | 37.23181 | 126.35760 | 10658 ft | 327 kts | 271° |
| 2026-05-05 01:35 | 37.23264 | 126.32981 | 10441 ft | 316 kts | 271° |
| 2026-05-05 01:35 | 37.23403 | 126.30316 | 10403 ft | 298 kts | 280° |
| 2026-05-05 01:35 | 37.24027 | 126.27916 | 10378 ft | 282 kts | 290° |
| 2026-05-05 01:35 | 37.24752 | 126.25678 | 10159 ft | 277 kts | 291° |
| 2026-05-05 01:36 | 37.25488 | 126.23449 | 9798 ft | 276 kts | 291° |
| 2026-05-05 01:36 | 37.26228 | 126.21231 | 9476 ft | 275 kts | 291° |
| 2026-05-05 01:36 | 37.26966 | 126.19016 | 9152 ft | 273 kts | 291° |
| 2026-05-05 01:36 | 37.27680 | 126.16862 | 9002 ft | 269 kts | 291° |
| 2026-05-05 01:37 | 37.28433 | 126.14671 | 8978 ft | 273 kts | 297° |
| 2026-05-05 01:37 | 37.29670 | 126.12875 | 8976 ft | 277 kts | 324° |
| 2026-05-05 01:37 | 37.31424 | 126.11857 | 8960 ft | 276 kts | 340° |
| 2026-05-05 01:37 | 37.33239 | 126.11111 | 8725 ft | 275 kts | 341° |
| 2026-05-05 01:38 | 37.35066 | 126.10390 | 8382 ft | 276 kts | 341° |
| 2026-05-05 01:38 | 37.36886 | 126.09679 | 8092 ft | 275 kts | 341° |
| 2026-05-05 01:38 | 37.38709 | 126.08971 | 7817 ft | 273 kts | 341° |
| 2026-05-05 01:38 | 37.40563 | 126.08499 | 7475 ft | 274 kts | 359° |
| 2026-05-05 01:39 | 37.42427 | 126.09003 | 7109 ft | 275 kts | 19° |
| 2026-05-05 01:39 | 37.44190 | 126.09882 | 6817 ft | 273 kts | 21° |
| 2026-05-05 01:39 | 37.45938 | 126.10779 | 6534 ft | 272 kts | 21° |
| 2026-05-05 01:39 | 37.47705 | 126.11692 | 6189 ft | 272 kts | 21° |
| 2026-05-05 01:40 | 37.49437 | 126.12588 | 5897 ft | 271 kts | 21° |
| 2026-05-05 01:40 | 37.51178 | 126.13489 | 5598 ft | 270 kts | 21° |
| 2026-05-05 01:40 | 37.52926 | 126.14384 | 5296 ft | 269 kts | 21° |
| 2026-05-05 01:40 | 37.54678 | 126.15271 | 4674 ft | 276 kts | 21° |
| 2026-05-05 01:41 | 37.56437 | 126.16223 | 3884 ft | 283 kts | 31° |
| 2026-05-05 01:41 | 37.57852 | 126.17922 | 3174 ft | 280 kts | 60° |
| 2026-05-05 01:41 | 37.58648 | 126.20098 | 2691 ft | 272 kts | 70° |
| 2026-05-05 01:41 | 37.59321 | 126.22279 | 2236 ft | 266 kts | 70° |
| 2026-05-05 01:42 | 37.59912 | 126.24462 | 1987 ft | 258 kts | 83° |
| 2026-05-05 01:42 | 37.59803 | 126.26611 | 1939 ft | 239 kts | 108° |
| 2026-05-05 01:42 | 37.59326 | 126.28564 | 1907 ft | 227 kts | 110° |
| 2026-05-05 01:42 | 37.58856 | 126.30390 | 1865 ft | 213 kts | 111° |
| 2026-05-05 01:43 | 37.58192 | 126.31963 | 1813 ft | 194 kts | 137° |
| 2026-05-05 01:43 | 37.57164 | 126.32968 | 1663 ft | 188 kts | 158° |
| 2026-05-05 01:43 | 37.55912 | 126.33310 | 1632 ft | 181 kts | 170° |
| 2026-05-05 01:43 | 37.54847 | 126.34078 | 1602 ft | 178 kts | 132° |
| 2026-05-05 01:44 | 37.54008 | 126.35223 | 1607 ft | 180 kts | 142° |
| 2026-05-05 01:44 | 37.53039 | 126.36209 | 1595 ft | 177 kts | 143° |
| 2026-05-05 01:44 | 37.51978 | 126.37174 | 1616 ft | 204 kts | 156° |
| 2026-05-05 01:44 | 37.50471 | 126.37418 | 2040 ft | 241 kts | 189° |
| 2026-05-05 01:45 | 37.48875 | 126.37068 | 3346 ft | 232 kts | 191° |
| 2026-05-05 01:45 | 37.47316 | 126.36701 | 3851 ft | 226 kts | 196° |
| 2026-05-05 01:45 | 37.45973 | 126.35731 | 3947 ft | 223 kts | 227° |
| 2026-05-05 01:45 | 37.45272 | 126.34026 | 3955 ft | 225 kts | 258° |
| 2026-05-05 01:46 | 37.45431 | 126.32066 | 3959 ft | 229 kts | 291° |
| 2026-05-05 01:46 | 37.46240 | 126.30335 | 3972 ft | 231 kts | 300° |
| 2026-05-05 01:46 | 37.47121 | 126.28677 | 3971 ft | 224 kts | 301° |
| 2026-05-05 01:46 | 37.47986 | 126.27079 | 3972 ft | 222 kts | 301° |
| 2026-05-05 01:47 | 37.48859 | 126.25465 | 3973 ft | 222 kts | 301° |
| 2026-05-05 01:47 | 37.49783 | 126.23908 | 3952 ft | 223 kts | 315° |
| 2026-05-05 01:47 | 37.51128 | 126.22883 | 3602 ft | 233 kts | 333° |
| 2026-05-05 01:47 | 37.52646 | 126.22060 | 3001 ft | 241 kts | 334° |
| 2026-05-05 01:48 | 37.54198 | 126.21241 | 2293 ft | 249 kts | 336° |
| 2026-05-05 01:48 | 37.55873 | 126.20869 | 1979 ft | 239 kts | 6° |
| 2026-05-05 01:48 | 37.57370 | 126.21545 | 1951 ft | 226 kts | 34° |
| 2026-05-05 01:48 | 37.58497 | 126.22842 | 1911 ft | 212 kts | 49° |
| 2026-05-05 01:49 | 37.59409 | 126.24233 | 1875 ft | 199 kts | 54° |
| 2026-05-05 01:49 | 37.60203 | 126.25605 | 1746 ft | 192 kts | 60° |
| 2026-05-05 01:49 | 37.60601 | 126.27150 | 1577 ft | 184 kts | 91° |
| 2026-05-05 01:49 | 37.60337 | 126.28729 | 1558 ft | 184 kts | 120° |
| 2026-05-05 01:50 | 37.59552 | 126.29921 | 1563 ft | 177 kts | 143° |
| 2026-05-05 01:50 | 37.58575 | 126.30887 | 1572 ft | 176 kts | 143° |
| 2026-05-05 01:50 | 37.57623 | 126.31838 | 1567 ft | 176 kts | 146° |
| 2026-05-05 01:50 | 37.56623 | 126.32728 | 1560 ft | 168 kts | 148° |
| 2026-05-05 01:51 | 37.55683 | 126.33541 | 1565 ft | 161 kts | 148° |
| 2026-05-05 01:51 | 37.54792 | 126.34330 | 1559 ft | 157 kts | 147° |
| 2026-05-05 01:51 | 37.53902 | 126.35119 | 1568 ft | 156 kts | 148° |
| 2026-05-05 01:51 | 37.53011 | 126.35915 | 1488 ft | 153 kts | 148° |
| 2026-05-05 01:52 | 37.52169 | 126.36646 | 1312 ft | 141 kts | 147° |
| 2026-05-05 01:52 | 37.51380 | 126.37356 | 1130 ft | 138 kts | 147° |
| 2026-05-05 01:52 | 37.50596 | 126.38049 | 948 ft | 136 kts | 148° |
| 2026-05-05 01:52 | 37.49824 | 126.38734 | 781 ft | 135 kts | 145° |
| 2026-05-05 01:53 | 37.49055 | 126.39421 | 595 ft | 137 kts | 147° |
| 2026-05-05 01:53 | 37.48267 | 126.40096 | 412 ft | 136 kts | 147° |
| 2026-05-05 01:53 | 37.47500 | 126.40784 | 237 ft | 137 kts | 146° |
| 2026-05-05 01:53 | 37.46724 | 126.41470 | 54 ft | 134 kts | 145° |
| 2026-05-05 01:54 | 37.46025 | 126.42088 | 35 ft | 104 kts | 144° |
| 2026-05-05 01:54 | 37.45544 | 126.42519 | 35 ft | 56 kts | 144° |
| 2026-05-05 01:54 | 37.45359 | 126.42735 | 35 ft | 31 kts | 123° |
| 2026-05-05 01:54 | 37.45272 | 126.42951 | 35 ft | 24 kts | 115° |
| 2026-05-05 01:55 | 37.45188 | 126.43102 | 35 ft | 18 kts | 141° |
| 2026-05-05 01:55 | 37.45105 | 126.43175 | 35 ft | 10 kts | 144° |
| 2026-05-05 01:55 | 37.45087 | 126.43253 | 35 ft | 10 kts | 75° |
| 2026-05-05 01:55 | 37.45133 | 126.43346 | 35 ft | 14 kts | 54° |
| 2026-05-05 01:56 | 37.45194 | 126.43456 | 35 ft | 10 kts | 54° |
| 2026-05-05 01:56 | 37.45220 | 126.43501 | 35 ft | 0 kts | 54° |
| 2026-05-05 01:56 | 37.45234 | 126.43527 | 35 ft | 5 kts | 54° |
| 2026-05-05 01:56 | 37.45264 | 126.43566 | 35 ft | 6 kts | 29° |
| 2026-05-05 01:57 | 37.45311 | 126.43568 | 35 ft | 7 kts | 340° |
| 2026-05-05 01:57 | 37.45356 | 126.43529 | 35 ft | 8 kts | 321° |
| 2026-05-05 01:57 | 37.45405 | 126.43484 | 35 ft | 9 kts | 324° |
| 2026-05-05 01:57 | 37.45466 | 126.43431 | 35 ft | 12 kts | 324° |
| 2026-05-05 01:58 | 37.45545 | 126.43361 | 35 ft | 15 kts | 324° |
| 2026-05-05 01:58 | 37.45635 | 126.43280 | 35 ft | 16 kts | 324° |
| 2026-05-05 01:58 | 37.45724 | 126.43201 | 35 ft | 11 kts | 324° |
| 2026-05-05 01:58 | 37.45783 | 126.43170 | 35 ft | 9 kts | 8° |
| 2026-05-05 01:59 | 37.45831 | 126.43220 | 35 ft | 9 kts | 53° |
| 2026-05-05 01:59 | 37.45871 | 126.43291 | 35 ft | 10 kts | 54° |
| 2026-05-05 01:59 | 37.45913 | 126.43365 | 35 ft | 10 kts | 54° |
| 2026-05-05 01:59 | 37.45956 | 126.43443 | 35 ft | 10 kts | 54° |
| 2026-05-05 02:00 | 37.46001 | 126.43521 | 35 ft | 11 kts | 54° |
| 2026-05-05 02:00 | 37.46047 | 126.43604 | 35 ft | 11 kts | 54° |
| 2026-05-05 02:00 | 37.46093 | 126.43685 | 35 ft | 11 kts | 54° |
| 2026-05-05 02:00 | 37.46149 | 126.43718 | 35 ft | 9 kts | 347° |
| 2026-05-05 02:01 | 37.46207 | 126.43674 | 35 ft | 10 kts | 324° |
| 2026-05-05 02:01 | 37.46268 | 126.43621 | 35 ft | 10 kts | 324° |
| 2026-05-05 02:01 | 37.46331 | 126.43565 | 35 ft | 11 kts | 324° |
| 2026-05-05 02:01 | 37.46396 | 126.43507 | 35 ft | 11 kts | 324° |
| 2026-05-05 02:02 | 37.46463 | 126.43464 | 35 ft | 10 kts | 355° |
| 2026-05-05 02:02 | 37.46510 | 126.43508 | 35 ft | 6 kts | 54° |
| 2026-05-05 02:02 | 37.46532 | 126.43539 | 35 ft | 4 kts | 24° |
| 2026-05-05 02:02 | 37.46567 | 126.43528 | 35 ft | 6 kts | 321° |
| 2026-05-05 02:03 | 37.46603 | 126.43494 | 35 ft | 3 kts | 324° |
| 2026-05-05 02:03 | 37.46608 | 126.43490 | 35 ft | 0 kts | 324° |